<?xml version="1.0" encoding="UTF-8" standalone="no" ?>
<gpx xmlns="http://www.topografix.com/GPX/1/1" xmlns:xsi="http://www.w3.org/2001/XMLSchema-instance" xsi:schemaLocation="http://www.topografix.com/GPX/1/1 http://www.topografix.com/GPX/1/1/gpx.xsd" version="1.1" creator="VisuGPX - https://www.visugpx.com">
  <metadata>
    <name>Mureviel les Montpellier</name>
    <desc><![CDATA[Autour de Murviel]]></desc>
  </metadata>
  <trk>
    <name><![CDATA[Murviel]]></name>
    <trkseg>
      <trkpt lat="43.60859" lon="3.74054">
        <ele>120.918655</ele>
        <time>2012-01-21T08:41:55Z</time>
      </trkpt>
      <trkpt lat="43.60882" lon="3.74135">
        <ele>126.890625</ele>
      </trkpt>
      <trkpt lat="43.60884" lon="3.74183">
        <ele>124.29296875</ele>
      </trkpt>
      <trkpt lat="43.60898" lon="3.74239">
        <ele>123.15625</ele>
      </trkpt>
      <trkpt lat="43.60904" lon="3.74359">
        <ele>122.6328125</ele>
      </trkpt>
      <trkpt lat="43.60912" lon="3.74387">
        <ele>123.5078125</ele>
      </trkpt>
      <trkpt lat="43.60923" lon="3.74414">
        <ele>124.55859375</ele>
      </trkpt>
      <trkpt lat="43.60946" lon="3.74441">
        <ele>124.71484375</ele>
      </trkpt>
      <trkpt lat="43.60968" lon="3.74522">
        <ele>122.96875</ele>
      </trkpt>
      <trkpt lat="43.61" lon="3.74602">
        <ele>118.796875</ele>
      </trkpt>
      <trkpt lat="43.61031" lon="3.74575">
        <ele>120.209114</ele>
        <time>2012-01-21T08:42:09Z</time>
      </trkpt>
      <trkpt lat="43.61073" lon="3.7452">
        <ele>123.407097</ele>
        <time>2012-01-21T08:42:26Z</time>
      </trkpt>
      <trkpt lat="43.61115" lon="3.7452">
        <ele>125.459274</ele>
        <time>2012-01-21T08:42:39Z</time>
      </trkpt>
      <trkpt lat="43.61163" lon="3.7449">
        <ele>129.899277</ele>
        <time>2012-01-21T08:42:57Z</time>
      </trkpt>
      <trkpt lat="43.61169" lon="3.74484">
        <ele>130.45787</ele>
        <time>2012-01-21T08:43:00Z</time>
      </trkpt>
      <trkpt lat="43.61178" lon="3.74489">
        <ele>130.663879</ele>
        <time>2012-01-21T08:43:05Z</time>
      </trkpt>
      <trkpt lat="43.61193" lon="3.74566">
        <ele>129.06044</ele>
        <time>2012-01-21T08:43:24Z</time>
      </trkpt>
      <trkpt lat="43.61197" lon="3.74588">
        <ele>128.999359</ele>
        <time>2012-01-21T08:43:28Z</time>
      </trkpt>
      <trkpt lat="43.61201" lon="3.74685">
        <ele>128.932953</ele>
        <time>2012-01-21T08:43:45Z</time>
      </trkpt>
      <trkpt lat="43.61201" lon="3.7476">
        <ele>127.221809</ele>
        <time>2012-01-21T08:43:56Z</time>
      </trkpt>
      <trkpt lat="43.61221" lon="3.74878">
        <ele>124.439224</ele>
        <time>2012-01-21T08:44:11Z</time>
      </trkpt>
      <trkpt lat="43.61232" lon="3.74924">
        <ele>124.517281</ele>
        <time>2012-01-21T08:44:17Z</time>
      </trkpt>
      <trkpt lat="43.61232" lon="3.75043">
        <ele>122.544731</ele>
        <time>2012-01-21T08:44:32Z</time>
      </trkpt>
      <trkpt lat="43.61244" lon="3.75111">
        <ele>121.705757</ele>
        <time>2012-01-21T08:44:42Z</time>
      </trkpt>
      <trkpt lat="43.61263" lon="3.75121">
        <ele>122.787582</ele>
        <time>2012-01-21T08:44:47Z</time>
      </trkpt>
      <trkpt lat="43.61311" lon="3.75096">
        <ele>127.508598</ele>
        <time>2012-01-21T08:45:04Z</time>
      </trkpt>
      <trkpt lat="43.61361" lon="3.75067">
        <ele>135.34021</ele>
        <time>2012-01-21T08:45:24Z</time>
      </trkpt>
      <trkpt lat="43.61379" lon="3.75104">
        <ele>138.163879</ele>
        <time>2012-01-21T08:45:37Z</time>
      </trkpt>
      <trkpt lat="43.61388" lon="3.75124">
        <ele>139.487488</ele>
        <time>2012-01-21T08:45:44Z</time>
      </trkpt>
      <trkpt lat="43.61396" lon="3.75165">
        <ele>140.739182</ele>
        <time>2012-01-21T08:45:57Z</time>
      </trkpt>
      <trkpt lat="43.61398" lon="3.7518">
        <ele>141.013367</ele>
        <time>2012-01-21T08:46:01Z</time>
      </trkpt>
      <trkpt lat="43.61409" lon="3.75177">
        <ele>144.147324</ele>
        <time>2012-01-21T08:46:09Z</time>
      </trkpt>
      <trkpt lat="43.61418" lon="3.75136">
        <ele>145.885651</ele>
        <time>2012-01-21T08:46:25Z</time>
      </trkpt>
      <trkpt lat="43.61436" lon="3.75101">
        <ele>147.82048</ele>
        <time>2012-01-21T08:46:40Z</time>
      </trkpt>
      <trkpt lat="43.6145" lon="3.75079">
        <ele>147.520126</ele>
        <time>2012-01-21T08:46:47Z</time>
      </trkpt>
      <trkpt lat="43.61452" lon="3.75066">
        <ele>147.148636</ele>
        <time>2012-01-21T08:46:56Z</time>
      </trkpt>
      <trkpt lat="43.61452" lon="3.75067">
        <ele>147.180069</ele>
        <time>2012-01-21T08:47:21Z</time>
      </trkpt>
      <trkpt lat="43.61452" lon="3.75067">
        <ele>147.192352</ele>
        <time>2012-01-21T08:48:10Z</time>
      </trkpt>
      <trkpt lat="43.61453" lon="3.75068">
        <ele>147.202957</ele>
        <time>2012-01-21T08:48:36Z</time>
      </trkpt>
      <trkpt lat="43.61454" lon="3.75067">
        <ele>147.169434</ele>
        <time>2012-01-21T08:48:39Z</time>
      </trkpt>
      <trkpt lat="43.61467" lon="3.75054">
        <ele>147.364059</ele>
        <time>2012-01-21T08:48:45Z</time>
      </trkpt>
      <trkpt lat="43.61479" lon="3.75055">
        <ele>146.80307</ele>
        <time>2012-01-21T08:48:53Z</time>
      </trkpt>
      <trkpt lat="43.61497" lon="3.75056">
        <ele>144.010742</ele>
        <time>2012-01-21T08:48:59Z</time>
      </trkpt>
      <trkpt lat="43.61509" lon="3.75057">
        <ele>142.051544</ele>
        <time>2012-01-21T08:49:02Z</time>
      </trkpt>
      <trkpt lat="43.61525" lon="3.75051">
        <ele>139.620499</ele>
        <time>2012-01-21T08:49:06Z</time>
      </trkpt>
      <trkpt lat="43.61554" lon="3.75042">
        <ele>134.951096</ele>
        <time>2012-01-21T08:49:11Z</time>
      </trkpt>
      <trkpt lat="43.61573" lon="3.75031">
        <ele>132.035248</ele>
        <time>2012-01-21T08:49:14Z</time>
      </trkpt>
      <trkpt lat="43.61583" lon="3.75022">
        <ele>130.766205</ele>
        <time>2012-01-21T08:49:16Z</time>
      </trkpt>
      <trkpt lat="43.61608" lon="3.75019">
        <ele>127.648888</ele>
        <time>2012-01-21T08:49:20Z</time>
      </trkpt>
      <trkpt lat="43.61643" lon="3.7504">
        <ele>122.94426</ele>
        <time>2012-01-21T08:49:25Z</time>
      </trkpt>
      <trkpt lat="43.61655" lon="3.75041">
        <ele>121.54969</ele>
        <time>2012-01-21T08:49:27Z</time>
      </trkpt>
      <trkpt lat="43.61706" lon="3.75117">
        <ele>111.401634</ele>
        <time>2012-01-21T08:49:40Z</time>
      </trkpt>
      <trkpt lat="43.6171" lon="3.75124">
        <ele>110.322639</ele>
        <time>2012-01-21T08:49:50Z</time>
      </trkpt>
      <trkpt lat="43.6171" lon="3.75125">
        <ele>110.234375</ele>
        <time>2012-01-21T08:50:31Z</time>
      </trkpt>
      <trkpt lat="43.61711" lon="3.75125">
        <ele>110.155952</ele>
        <time>2012-01-21T08:51:46Z</time>
      </trkpt>
      <trkpt lat="43.61711" lon="3.75124">
        <ele>110.176575</ele>
        <time>2012-01-21T08:52:21Z</time>
      </trkpt>
      <trkpt lat="43.61711" lon="3.75125">
        <ele>110.144203</ele>
        <time>2012-01-21T08:53:28Z</time>
      </trkpt>
      <trkpt lat="43.61711" lon="3.75124">
        <ele>110.256416</ele>
        <time>2012-01-21T08:53:30Z</time>
      </trkpt>
      <trkpt lat="43.61722" lon="3.75122">
        <ele>109.266502</ele>
        <time>2012-01-21T08:53:37Z</time>
      </trkpt>
      <trkpt lat="43.61726" lon="3.7512">
        <ele>109.059227</ele>
        <time>2012-01-21T08:53:39Z</time>
      </trkpt>
      <trkpt lat="43.61743" lon="3.751">
        <ele>109.655365</ele>
        <time>2012-01-21T08:53:50Z</time>
      </trkpt>
      <trkpt lat="43.6177" lon="3.75073">
        <ele>110.043877</ele>
        <time>2012-01-21T08:54:04Z</time>
      </trkpt>
      <trkpt lat="43.61798" lon="3.7505">
        <ele>108.945877</ele>
        <time>2012-01-21T08:54:16Z</time>
      </trkpt>
      <trkpt lat="43.61806" lon="3.75015">
        <ele>110.377563</ele>
        <time>2012-01-21T08:54:26Z</time>
      </trkpt>
      <trkpt lat="43.61807" lon="3.75005">
        <ele>110.497826</ele>
        <time>2012-01-21T08:54:28Z</time>
      </trkpt>
      <trkpt lat="43.61793" lon="3.74956">
        <ele>109.51339</ele>
        <time>2012-01-21T08:54:40Z</time>
      </trkpt>
      <trkpt lat="43.61779" lon="3.74935">
        <ele>110.668961</ele>
        <time>2012-01-21T08:54:50Z</time>
      </trkpt>
      <trkpt lat="43.61771" lon="3.74926">
        <ele>111.271309</ele>
        <time>2012-01-21T08:54:56Z</time>
      </trkpt>
      <trkpt lat="43.61745" lon="3.74907">
        <ele>111.696632</ele>
        <time>2012-01-21T08:55:06Z</time>
      </trkpt>
      <trkpt lat="43.61718" lon="3.74884">
        <ele>113.10717</ele>
        <time>2012-01-21T08:55:16Z</time>
      </trkpt>
      <trkpt lat="43.61713" lon="3.74867">
        <ele>112.670975</ele>
        <time>2012-01-21T08:55:20Z</time>
      </trkpt>
      <trkpt lat="43.61706" lon="3.74824">
        <ele>109.473289</ele>
        <time>2012-01-21T08:55:30Z</time>
      </trkpt>
      <trkpt lat="43.61704" lon="3.74814">
        <ele>108.916214</ele>
        <time>2012-01-21T08:55:32Z</time>
      </trkpt>
      <trkpt lat="43.61681" lon="3.74757">
        <ele>112.161369</ele>
        <time>2012-01-21T08:55:45Z</time>
      </trkpt>
      <trkpt lat="43.61663" lon="3.74711">
        <ele>111.863411</ele>
        <time>2012-01-21T08:55:58Z</time>
      </trkpt>
      <trkpt lat="43.61637" lon="3.74657">
        <ele>113.042564</ele>
        <time>2012-01-21T08:56:13Z</time>
      </trkpt>
      <trkpt lat="43.61621" lon="3.74624">
        <ele>113.159111</ele>
        <time>2012-01-21T08:56:23Z</time>
      </trkpt>
      <trkpt lat="43.61606" lon="3.74591">
        <ele>114.436401</ele>
        <time>2012-01-21T08:56:33Z</time>
      </trkpt>
      <trkpt lat="43.61591" lon="3.74557">
        <ele>116.056549</ele>
        <time>2012-01-21T08:56:42Z</time>
      </trkpt>
      <trkpt lat="43.61572" lon="3.74513">
        <ele>115.604782</ele>
        <time>2012-01-21T08:56:53Z</time>
      </trkpt>
      <trkpt lat="43.6156" lon="3.74503">
        <ele>117.275139</ele>
        <time>2012-01-21T08:57:02Z</time>
      </trkpt>
      <trkpt lat="43.61551" lon="3.74497">
        <ele>118.615814</ele>
        <time>2012-01-21T08:57:39Z</time>
      </trkpt>
      <trkpt lat="43.61548" lon="3.74495">
        <ele>118.821487</ele>
        <time>2012-01-21T08:57:42Z</time>
      </trkpt>
      <trkpt lat="43.61535" lon="3.7449">
        <ele>120.775444</ele>
        <time>2012-01-21T08:57:49Z</time>
      </trkpt>
      <trkpt lat="43.61504" lon="3.74483">
        <ele>122.588524</ele>
        <time>2012-01-21T08:58:01Z</time>
      </trkpt>
      <trkpt lat="43.61471" lon="3.74473">
        <ele>122.084785</ele>
        <time>2012-01-21T08:58:14Z</time>
      </trkpt>
      <trkpt lat="43.6143" lon="3.74445">
        <ele>119.807594</ele>
        <time>2012-01-21T08:58:29Z</time>
      </trkpt>
      <trkpt lat="43.6139" lon="3.74387">
        <ele>122.394112</ele>
        <time>2012-01-21T08:58:48Z</time>
      </trkpt>
      <trkpt lat="43.61359" lon="3.74337">
        <ele>125.456398</ele>
        <time>2012-01-21T08:59:06Z</time>
      </trkpt>
      <trkpt lat="43.61326" lon="3.74302">
        <ele>128.04747</ele>
        <time>2012-01-21T08:59:21Z</time>
      </trkpt>
      <trkpt lat="43.61292" lon="3.74275">
        <ele>130.281647</ele>
        <time>2012-01-21T08:59:36Z</time>
      </trkpt>
      <trkpt lat="43.61251" lon="3.74239">
        <ele>132.768127</ele>
        <time>2012-01-21T08:59:52Z</time>
      </trkpt>
      <trkpt lat="43.612" lon="3.74194">
        <ele>136.611969</ele>
        <time>2012-01-21T09:00:11Z</time>
      </trkpt>
      <trkpt lat="43.61161" lon="3.74134">
        <ele>139.155746</ele>
        <time>2012-01-21T09:00:30Z</time>
      </trkpt>
      <trkpt lat="43.61119" lon="3.74033">
        <ele>141.565018</ele>
        <time>2012-01-21T09:00:55Z</time>
      </trkpt>
      <trkpt lat="43.61078" lon="3.73938">
        <ele>145.015289</ele>
        <time>2012-01-21T09:01:21Z</time>
      </trkpt>
      <trkpt lat="43.61065" lon="3.7389">
        <ele>146.965134</ele>
        <time>2012-01-21T09:01:35Z</time>
      </trkpt>
      <trkpt lat="43.61071" lon="3.73882">
        <ele>147.423172</ele>
        <time>2012-01-21T09:01:39Z</time>
      </trkpt>
      <trkpt lat="43.61091" lon="3.73832">
        <ele>150.963272</ele>
        <time>2012-01-21T09:01:57Z</time>
      </trkpt>
      <trkpt lat="43.61104" lon="3.73785">
        <ele>154.686295</ele>
        <time>2012-01-21T09:02:13Z</time>
      </trkpt>
      <trkpt lat="43.61108" lon="3.73777">
        <ele>155.316406</ele>
        <time>2012-01-21T09:02:16Z</time>
      </trkpt>
      <trkpt lat="43.61148" lon="3.73735">
        <ele>156.541382</ele>
        <time>2012-01-21T09:02:39Z</time>
      </trkpt>
      <trkpt lat="43.61157" lon="3.73722">
        <ele>156.564362</ele>
        <time>2012-01-21T09:02:45Z</time>
      </trkpt>
      <trkpt lat="43.61179" lon="3.73682">
        <ele>157.161331</ele>
        <time>2012-01-21T09:03:04Z</time>
      </trkpt>
      <trkpt lat="43.61196" lon="3.73635">
        <ele>156.872986</ele>
        <time>2012-01-21T09:03:22Z</time>
      </trkpt>
      <trkpt lat="43.61197" lon="3.73625">
        <ele>156.500839</ele>
        <time>2012-01-21T09:03:25Z</time>
      </trkpt>
      <trkpt lat="43.61185" lon="3.73606">
        <ele>156.398376</ele>
        <time>2012-01-21T09:03:34Z</time>
      </trkpt>
      <trkpt lat="43.61179" lon="3.7354">
        <ele>153.222458</ele>
        <time>2012-01-21T09:03:52Z</time>
      </trkpt>
      <trkpt lat="43.61177" lon="3.73523">
        <ele>152.445435</ele>
        <time>2012-01-21T09:04:08Z</time>
      </trkpt>
      <trkpt lat="43.61174" lon="3.73503">
        <ele>152.031403</ele>
        <time>2012-01-21T09:08:38Z</time>
      </trkpt>
      <trkpt lat="43.61167" lon="3.73467">
        <ele>154.233002</ele>
        <time>2012-01-21T09:08:52Z</time>
      </trkpt>
      <trkpt lat="43.61163" lon="3.73422">
        <ele>156.814697</ele>
        <time>2012-01-21T09:09:09Z</time>
      </trkpt>
      <trkpt lat="43.61158" lon="3.73414">
        <ele>158.234802</ele>
        <time>2012-01-21T09:09:21Z</time>
      </trkpt>
      <trkpt lat="43.61153" lon="3.7341">
        <ele>159.347427</ele>
        <time>2012-01-21T09:09:42Z</time>
      </trkpt>
      <trkpt lat="43.61152" lon="3.73406">
        <ele>159.896881</ele>
        <time>2012-01-21T09:10:42Z</time>
      </trkpt>
      <trkpt lat="43.61146" lon="3.73399">
        <ele>161.409698</ele>
        <time>2012-01-21T09:10:50Z</time>
      </trkpt>
      <trkpt lat="43.61137" lon="3.7339">
        <ele>163.91684</ele>
        <time>2012-01-21T09:11:07Z</time>
      </trkpt>
      <trkpt lat="43.61127" lon="3.73385">
        <ele>167.032364</ele>
        <time>2012-01-21T09:11:24Z</time>
      </trkpt>
      <trkpt lat="43.61127" lon="3.73386">
        <ele>166.949631</ele>
        <time>2012-01-21T09:12:16Z</time>
      </trkpt>
      <trkpt lat="43.61127" lon="3.73386">
        <ele>166.934647</ele>
        <time>2012-01-21T09:12:53Z</time>
      </trkpt>
      <trkpt lat="43.61127" lon="3.73379">
        <ele>167.45195</ele>
        <time>2012-01-21T09:12:57Z</time>
      </trkpt>
      <trkpt lat="43.61112" lon="3.73345">
        <ele>173.318359</ele>
        <time>2012-01-21T09:13:13Z</time>
      </trkpt>
      <trkpt lat="43.61095" lon="3.73306">
        <ele>179.892883</ele>
        <time>2012-01-21T09:13:29Z</time>
      </trkpt>
      <trkpt lat="43.61081" lon="3.73258">
        <ele>183.431473</ele>
        <time>2012-01-21T09:13:46Z</time>
      </trkpt>
      <trkpt lat="43.61082" lon="3.73251">
        <ele>183.962433</ele>
        <time>2012-01-21T09:13:49Z</time>
      </trkpt>
      <trkpt lat="43.61094" lon="3.7321">
        <ele>186.591232</ele>
        <time>2012-01-21T09:14:06Z</time>
      </trkpt>
      <trkpt lat="43.61111" lon="3.73175">
        <ele>187.187103</ele>
        <time>2012-01-21T09:14:24Z</time>
      </trkpt>
      <trkpt lat="43.61123" lon="3.73135">
        <ele>188.424423</ele>
        <time>2012-01-21T09:14:42Z</time>
      </trkpt>
      <trkpt lat="43.6112" lon="3.73123">
        <ele>188.127716</ele>
        <time>2012-01-21T09:14:54Z</time>
      </trkpt>
      <trkpt lat="43.61119" lon="3.73123">
        <ele>188.21347</ele>
        <time>2012-01-21T09:17:27Z</time>
      </trkpt>
      <trkpt lat="43.61113" lon="3.73121">
        <ele>188.98674</ele>
        <time>2012-01-21T09:17:31Z</time>
      </trkpt>
      <trkpt lat="43.61112" lon="3.73126">
        <ele>189.517761</ele>
        <time>2012-01-21T09:17:36Z</time>
      </trkpt>
      <trkpt lat="43.61109" lon="3.73125">
        <ele>189.855011</ele>
        <time>2012-01-21T09:17:43Z</time>
      </trkpt>
      <trkpt lat="43.61111" lon="3.73122">
        <ele>189.473053</ele>
        <time>2012-01-21T09:17:55Z</time>
      </trkpt>
      <trkpt lat="43.61109" lon="3.73124">
        <ele>189.731216</ele>
        <time>2012-01-21T09:18:13Z</time>
      </trkpt>
      <trkpt lat="43.61121" lon="3.73118">
        <ele>187.669617</ele>
        <time>2012-01-21T09:18:19Z</time>
      </trkpt>
      <trkpt lat="43.61121" lon="3.73112">
        <ele>187.246155</ele>
        <time>2012-01-21T09:18:25Z</time>
      </trkpt>
      <trkpt lat="43.6112" lon="3.7311">
        <ele>187.341156</ele>
        <time>2012-01-21T09:18:35Z</time>
      </trkpt>
      <trkpt lat="43.6112" lon="3.73109">
        <ele>187.252029</ele>
        <time>2012-01-21T09:22:13Z</time>
      </trkpt>
      <trkpt lat="43.61121" lon="3.73108">
        <ele>187.165009</ele>
        <time>2012-01-21T09:23:02Z</time>
      </trkpt>
      <trkpt lat="43.61118" lon="3.73093">
        <ele>186.826309</ele>
        <time>2012-01-21T09:23:06Z</time>
      </trkpt>
      <trkpt lat="43.61107" lon="3.7308">
        <ele>188.299103</ele>
        <time>2012-01-21T09:23:10Z</time>
      </trkpt>
      <trkpt lat="43.61067" lon="3.73025">
        <ele>190.13237</ele>
        <time>2012-01-21T09:23:22Z</time>
      </trkpt>
      <trkpt lat="43.61046" lon="3.72998">
        <ele>190.739853</ele>
        <time>2012-01-21T09:23:27Z</time>
      </trkpt>
      <trkpt lat="43.61025" lon="3.72976">
        <ele>190.173126</ele>
        <time>2012-01-21T09:23:32Z</time>
      </trkpt>
      <trkpt lat="43.60975" lon="3.7296">
        <ele>190.959869</ele>
        <time>2012-01-21T09:23:44Z</time>
      </trkpt>
      <trkpt lat="43.60953" lon="3.72977">
        <ele>191.004822</ele>
        <time>2012-01-21T09:23:54Z</time>
      </trkpt>
      <trkpt lat="43.60949" lon="3.72984">
        <ele>190.932968</ele>
        <time>2012-01-21T09:24:08Z</time>
      </trkpt>
      <trkpt lat="43.60947" lon="3.72989">
        <ele>191.072922</ele>
        <time>2012-01-21T09:24:11Z</time>
      </trkpt>
      <trkpt lat="43.60944" lon="3.72996">
        <ele>191.241852</ele>
        <time>2012-01-21T09:24:23Z</time>
      </trkpt>
      <trkpt lat="43.60939" lon="3.73014">
        <ele>191.084778</ele>
        <time>2012-01-21T09:25:01Z</time>
      </trkpt>
      <trkpt lat="43.60941" lon="3.7303">
        <ele>190.990097</ele>
        <time>2012-01-21T09:25:05Z</time>
      </trkpt>
      <trkpt lat="43.60945" lon="3.73064">
        <ele>190.675034</ele>
        <time>2012-01-21T09:25:11Z</time>
      </trkpt>
      <trkpt lat="43.60958" lon="3.73094">
        <ele>190.761292</ele>
        <time>2012-01-21T09:25:15Z</time>
      </trkpt>
      <trkpt lat="43.60999" lon="3.73178">
        <ele>190.471619</ele>
        <time>2012-01-21T09:25:25Z</time>
      </trkpt>
      <trkpt lat="43.61002" lon="3.73187">
        <ele>190.611664</ele>
        <time>2012-01-21T09:25:26Z</time>
      </trkpt>
      <trkpt lat="43.61007" lon="3.73224">
        <ele>189.596161</ele>
        <time>2012-01-21T09:25:30Z</time>
      </trkpt>
      <trkpt lat="43.61009" lon="3.7326">
        <ele>187.98735</ele>
        <time>2012-01-21T09:25:34Z</time>
      </trkpt>
      <trkpt lat="43.61006" lon="3.73288">
        <ele>186.982193</ele>
        <time>2012-01-21T09:25:37Z</time>
      </trkpt>
      <trkpt lat="43.61011" lon="3.73313">
        <ele>186.202118</ele>
        <time>2012-01-21T09:25:44Z</time>
      </trkpt>
      <trkpt lat="43.61011" lon="3.73312">
        <ele>186.227692</ele>
        <time>2012-01-21T09:26:18Z</time>
      </trkpt>
      <trkpt lat="43.61007" lon="3.73315">
        <ele>186.114441</ele>
        <time>2012-01-21T09:26:31Z</time>
      </trkpt>
      <trkpt lat="43.60987" lon="3.73334">
        <ele>181.674271</ele>
        <time>2012-01-21T09:26:44Z</time>
      </trkpt>
      <trkpt lat="43.60983" lon="3.73337">
        <ele>180.856613</ele>
        <time>2012-01-21T09:26:45Z</time>
      </trkpt>
      <trkpt lat="43.60971" lon="3.73338">
        <ele>178.630051</ele>
        <time>2012-01-21T09:26:48Z</time>
      </trkpt>
      <trkpt lat="43.60963" lon="3.73343">
        <ele>176.801285</ele>
        <time>2012-01-21T09:26:51Z</time>
      </trkpt>
      <trkpt lat="43.60948" lon="3.73349">
        <ele>172.002045</ele>
        <time>2012-01-21T09:26:56Z</time>
      </trkpt>
      <trkpt lat="43.60941" lon="3.73351">
        <ele>169.827728</ele>
        <time>2012-01-21T09:26:58Z</time>
      </trkpt>
      <trkpt lat="43.60929" lon="3.73345">
        <ele>166.502792</ele>
        <time>2012-01-21T09:27:02Z</time>
      </trkpt>
      <trkpt lat="43.60921" lon="3.7334">
        <ele>164.222641</ele>
        <time>2012-01-21T09:27:04Z</time>
      </trkpt>
      <trkpt lat="43.60904" lon="3.73304">
        <ele>160.546906</ele>
        <time>2012-01-21T09:27:12Z</time>
      </trkpt>
      <trkpt lat="43.60893" lon="3.73286">
        <ele>158.080582</ele>
        <time>2012-01-21T09:27:15Z</time>
      </trkpt>
      <trkpt lat="43.60886" lon="3.73272">
        <ele>156.560364</ele>
        <time>2012-01-21T09:27:22Z</time>
      </trkpt>
      <trkpt lat="43.60886" lon="3.73272">
        <ele>156.56102</ele>
        <time>2012-01-21T09:28:30Z</time>
      </trkpt>
      <trkpt lat="43.60887" lon="3.73268">
        <ele>156.762177</ele>
        <time>2012-01-21T09:28:34Z</time>
      </trkpt>
      <trkpt lat="43.60888" lon="3.73257">
        <ele>156.97612</ele>
        <time>2012-01-21T09:28:39Z</time>
      </trkpt>
      <trkpt lat="43.60874" lon="3.73204">
        <ele>157.052155</ele>
        <time>2012-01-21T09:28:53Z</time>
      </trkpt>
      <trkpt lat="43.60867" lon="3.73159">
        <ele>159.333496</ele>
        <time>2012-01-21T09:29:03Z</time>
      </trkpt>
      <trkpt lat="43.60853" lon="3.73134">
        <ele>158.564041</ele>
        <time>2012-01-21T09:29:09Z</time>
      </trkpt>
      <trkpt lat="43.6085" lon="3.73119">
        <ele>159.05545</ele>
        <time>2012-01-21T09:29:12Z</time>
      </trkpt>
      <trkpt lat="43.60853" lon="3.731">
        <ele>161.136765</ele>
        <time>2012-01-21T09:29:21Z</time>
      </trkpt>
      <trkpt lat="43.60854" lon="3.73098">
        <ele>161.473938</ele>
        <time>2012-01-21T09:29:23Z</time>
      </trkpt>
      <trkpt lat="43.60855" lon="3.73097">
        <ele>161.893356</ele>
        <time>2012-01-21T09:29:46Z</time>
      </trkpt>
      <trkpt lat="43.60855" lon="3.73096">
        <ele>161.934387</ele>
        <time>2012-01-21T09:31:22Z</time>
      </trkpt>
      <trkpt lat="43.60855" lon="3.73095">
        <ele>161.871948</ele>
        <time>2012-01-21T09:31:51Z</time>
      </trkpt>
      <trkpt lat="43.60855" lon="3.73095">
        <ele>162.03157</ele>
        <time>2012-01-21T09:32:46Z</time>
      </trkpt>
      <trkpt lat="43.60856" lon="3.73095">
        <ele>162.075134</ele>
        <time>2012-01-21T09:33:04Z</time>
      </trkpt>
      <trkpt lat="43.60856" lon="3.73081">
        <ele>163.184372</ele>
        <time>2012-01-21T09:33:10Z</time>
      </trkpt>
      <trkpt lat="43.60848" lon="3.73036">
        <ele>163.024628</ele>
        <time>2012-01-21T09:33:20Z</time>
      </trkpt>
      <trkpt lat="43.60842" lon="3.73012">
        <ele>161.955414</ele>
        <time>2012-01-21T09:33:25Z</time>
      </trkpt>
      <trkpt lat="43.60837" lon="3.72948">
        <ele>162.095932</ele>
        <time>2012-01-21T09:33:39Z</time>
      </trkpt>
      <trkpt lat="43.60841" lon="3.72911">
        <ele>162.046051</ele>
        <time>2012-01-21T09:33:46Z</time>
      </trkpt>
      <trkpt lat="43.60851" lon="3.72888">
        <ele>163.382767</ele>
        <time>2012-01-21T09:33:51Z</time>
      </trkpt>
      <trkpt lat="43.60853" lon="3.72876">
        <ele>163.2453</ele>
        <time>2012-01-21T09:33:53Z</time>
      </trkpt>
      <trkpt lat="43.60852" lon="3.72855">
        <ele>161.967148</ele>
        <time>2012-01-21T09:33:56Z</time>
      </trkpt>
      <trkpt lat="43.60854" lon="3.72825">
        <ele>160.398972</ele>
        <time>2012-01-21T09:34:00Z</time>
      </trkpt>
      <trkpt lat="43.60841" lon="3.72792">
        <ele>158.051453</ele>
        <time>2012-01-21T09:34:08Z</time>
      </trkpt>
      <trkpt lat="43.6084" lon="3.7279">
        <ele>157.95575</ele>
        <time>2012-01-21T09:34:09Z</time>
      </trkpt>
      <trkpt lat="43.60845" lon="3.72786">
        <ele>158.030685</ele>
        <time>2012-01-21T09:34:12Z</time>
      </trkpt>
      <trkpt lat="43.60842" lon="3.72792">
        <ele>158.121979</ele>
        <time>2012-01-21T09:34:17Z</time>
      </trkpt>
      <trkpt lat="43.60831" lon="3.72758">
        <ele>157.009125</ele>
        <time>2012-01-21T09:34:28Z</time>
      </trkpt>
      <trkpt lat="43.60832" lon="3.72758">
        <ele>157.006119</ele>
        <time>2012-01-21T09:34:38Z</time>
      </trkpt>
      <trkpt lat="43.60822" lon="3.72717">
        <ele>159.762451</ele>
        <time>2012-01-21T09:34:50Z</time>
      </trkpt>
      <trkpt lat="43.60815" lon="3.72652">
        <ele>162.822464</ele>
        <time>2012-01-21T09:35:05Z</time>
      </trkpt>
      <trkpt lat="43.60802" lon="3.72588">
        <ele>166.384506</ele>
        <time>2012-01-21T09:35:23Z</time>
      </trkpt>
      <trkpt lat="43.60786" lon="3.72541">
        <ele>168.446655</ele>
        <time>2012-01-21T09:35:39Z</time>
      </trkpt>
      <trkpt lat="43.6077" lon="3.72485">
        <ele>170.252243</ele>
        <time>2012-01-21T09:35:58Z</time>
      </trkpt>
      <trkpt lat="43.60757" lon="3.72444">
        <ele>171.310501</ele>
        <time>2012-01-21T09:36:15Z</time>
      </trkpt>
      <trkpt lat="43.60743" lon="3.72399">
        <ele>173.821152</ele>
        <time>2012-01-21T09:36:34Z</time>
      </trkpt>
      <trkpt lat="43.60725" lon="3.72361">
        <ele>176.615311</ele>
        <time>2012-01-21T09:36:52Z</time>
      </trkpt>
      <trkpt lat="43.60721" lon="3.72355">
        <ele>177.004044</ele>
        <time>2012-01-21T09:36:55Z</time>
      </trkpt>
      <trkpt lat="43.60713" lon="3.72348">
        <ele>177.880798</ele>
        <time>2012-01-21T09:37:01Z</time>
      </trkpt>
      <trkpt lat="43.60712" lon="3.72345">
        <ele>177.964981</ele>
        <time>2012-01-21T09:37:03Z</time>
      </trkpt>
      <trkpt lat="43.60709" lon="3.72339">
        <ele>178.321701</ele>
        <time>2012-01-21T09:37:07Z</time>
      </trkpt>
      <trkpt lat="43.60699" lon="3.72316">
        <ele>178.990463</ele>
        <time>2012-01-21T09:37:18Z</time>
      </trkpt>
      <trkpt lat="43.60698" lon="3.72308">
        <ele>178.963837</ele>
        <time>2012-01-21T09:37:23Z</time>
      </trkpt>
      <trkpt lat="43.60703" lon="3.72294">
        <ele>178.977768</ele>
        <time>2012-01-21T09:37:31Z</time>
      </trkpt>
      <trkpt lat="43.60708" lon="3.72281">
        <ele>178.913895</ele>
        <time>2012-01-21T09:37:38Z</time>
      </trkpt>
      <trkpt lat="43.60722" lon="3.72252">
        <ele>180.060913</ele>
        <time>2012-01-21T09:37:51Z</time>
      </trkpt>
      <trkpt lat="43.60722" lon="3.7225">
        <ele>180.231033</ele>
        <time>2012-01-21T09:37:52Z</time>
      </trkpt>
      <trkpt lat="43.60722" lon="3.72204">
        <ele>183.806976</ele>
        <time>2012-01-21T09:38:08Z</time>
      </trkpt>
      <trkpt lat="43.60719" lon="3.72174">
        <ele>185.461334</ele>
        <time>2012-01-21T09:38:20Z</time>
      </trkpt>
      <trkpt lat="43.60715" lon="3.72129">
        <ele>187.140076</ele>
        <time>2012-01-21T09:38:39Z</time>
      </trkpt>
      <trkpt lat="43.60719" lon="3.72085">
        <ele>191.419907</ele>
        <time>2012-01-21T09:38:58Z</time>
      </trkpt>
      <trkpt lat="43.60721" lon="3.72041">
        <ele>195.542114</ele>
        <time>2012-01-21T09:39:17Z</time>
      </trkpt>
      <trkpt lat="43.60714" lon="3.72012">
        <ele>197.102737</ele>
        <time>2012-01-21T09:39:31Z</time>
      </trkpt>
      <trkpt lat="43.60698" lon="3.7199">
        <ele>198.081589</ele>
        <time>2012-01-21T09:39:47Z</time>
      </trkpt>
      <trkpt lat="43.60684" lon="3.71969">
        <ele>198.979752</ele>
        <time>2012-01-21T09:40:02Z</time>
      </trkpt>
      <trkpt lat="43.6068" lon="3.71946">
        <ele>201.743866</ele>
        <time>2012-01-21T09:40:14Z</time>
      </trkpt>
      <trkpt lat="43.60678" lon="3.71925">
        <ele>203.158798</ele>
        <time>2012-01-21T09:40:25Z</time>
      </trkpt>
      <trkpt lat="43.60676" lon="3.7192">
        <ele>203.383911</ele>
        <time>2012-01-21T09:40:28Z</time>
      </trkpt>
      <trkpt lat="43.6067" lon="3.71892">
        <ele>205.706818</ele>
        <time>2012-01-21T09:40:44Z</time>
      </trkpt>
      <trkpt lat="43.60668" lon="3.71882">
        <ele>205.910431</ele>
        <time>2012-01-21T09:41:00Z</time>
      </trkpt>
      <trkpt lat="43.60664" lon="3.71857">
        <ele>205.005142</ele>
        <time>2012-01-21T09:43:06Z</time>
      </trkpt>
      <trkpt lat="43.60657" lon="3.71823">
        <ele>203.799484</ele>
        <time>2012-01-21T09:43:13Z</time>
      </trkpt>
      <trkpt lat="43.60617" lon="3.71734">
        <ele>198.716583</ele>
        <time>2012-01-21T09:43:24Z</time>
      </trkpt>
      <trkpt lat="43.60628" lon="3.71688">
        <ele>196.34317</ele>
        <time>2012-01-21T09:43:30Z</time>
      </trkpt>
      <trkpt lat="43.6064" lon="3.71681">
        <ele>195.255173</ele>
        <time>2012-01-21T09:43:32Z</time>
      </trkpt>
      <trkpt lat="43.60682" lon="3.71665">
        <ele>188.829361</ele>
        <time>2012-01-21T09:43:38Z</time>
      </trkpt>
      <trkpt lat="43.60715" lon="3.71613">
        <ele>184.587677</ele>
        <time>2012-01-21T09:43:45Z</time>
      </trkpt>
      <trkpt lat="43.60717" lon="3.71594">
        <ele>185.15506</ele>
        <time>2012-01-21T09:43:47Z</time>
      </trkpt>
      <trkpt lat="43.60706" lon="3.71516">
        <ele>183.926636</ele>
        <time>2012-01-21T09:43:55Z</time>
      </trkpt>
      <trkpt lat="43.6069" lon="3.71488">
        <ele>182.94342</ele>
        <time>2012-01-21T09:44:03Z</time>
      </trkpt>
      <trkpt lat="43.6069" lon="3.71488">
        <ele>182.780716</ele>
        <time>2012-01-21T09:47:21Z</time>
      </trkpt>
      <trkpt lat="43.6069" lon="3.71488">
        <ele>182.794815</ele>
        <time>2012-01-21T09:49:02Z</time>
      </trkpt>
      <trkpt lat="43.60683" lon="3.7148">
        <ele>182.813217</ele>
        <time>2012-01-21T09:49:06Z</time>
      </trkpt>
      <trkpt lat="43.60646" lon="3.7145">
        <ele>182.596786</ele>
        <time>2012-01-21T09:49:14Z</time>
      </trkpt>
      <trkpt lat="43.60617" lon="3.7143">
        <ele>182.835938</ele>
        <time>2012-01-21T09:49:20Z</time>
      </trkpt>
      <trkpt lat="43.60606" lon="3.71404">
        <ele>180.514908</ele>
        <time>2012-01-21T09:49:25Z</time>
      </trkpt>
      <trkpt lat="43.60596" lon="3.71386">
        <ele>179.045975</ele>
        <time>2012-01-21T09:49:28Z</time>
      </trkpt>
      <trkpt lat="43.60586" lon="3.71366">
        <ele>177.810135</ele>
        <time>2012-01-21T09:49:32Z</time>
      </trkpt>
      <trkpt lat="43.60578" lon="3.71312">
        <ele>172.82988</ele>
        <time>2012-01-21T09:49:39Z</time>
      </trkpt>
      <trkpt lat="43.6056" lon="3.7127">
        <ele>172.133331</ele>
        <time>2012-01-21T09:49:44Z</time>
      </trkpt>
      <trkpt lat="43.60529" lon="3.71221">
        <ele>169.712173</ele>
        <time>2012-01-21T09:49:50Z</time>
      </trkpt>
      <trkpt lat="43.60475" lon="3.71165">
        <ele>162.920227</ele>
        <time>2012-01-21T09:49:59Z</time>
      </trkpt>
      <trkpt lat="43.6045" lon="3.71149">
        <ele>160.373093</ele>
        <time>2012-01-21T09:50:05Z</time>
      </trkpt>
      <trkpt lat="43.60427" lon="3.71134">
        <ele>157.015594</ele>
        <time>2012-01-21T09:50:10Z</time>
      </trkpt>
      <trkpt lat="43.60407" lon="3.71131">
        <ele>156.392258</ele>
        <time>2012-01-21T09:50:13Z</time>
      </trkpt>
      <trkpt lat="43.60395" lon="3.71127">
        <ele>155.533493</ele>
        <time>2012-01-21T09:50:15Z</time>
      </trkpt>
      <trkpt lat="43.60362" lon="3.71108">
        <ele>150.793274</ele>
        <time>2012-01-21T09:50:23Z</time>
      </trkpt>
      <trkpt lat="43.60362" lon="3.71107">
        <ele>150.712646</ele>
        <time>2012-01-21T09:50:57Z</time>
      </trkpt>
      <trkpt lat="43.60366" lon="3.71106">
        <ele>150.61673</ele>
        <time>2012-01-21T09:53:26Z</time>
      </trkpt>
      <trkpt lat="43.60366" lon="3.71106">
        <ele>150.574127</ele>
        <time>2012-01-21T09:54:12Z</time>
      </trkpt>
      <trkpt lat="43.60365" lon="3.71106">
        <ele>150.587769</ele>
        <time>2012-01-21T09:54:25Z</time>
      </trkpt>
      <trkpt lat="43.6037" lon="3.71107">
        <ele>150.904434</ele>
        <time>2012-01-21T09:54:29Z</time>
      </trkpt>
      <trkpt lat="43.60406" lon="3.7111">
        <ele>152.46936</ele>
        <time>2012-01-21T09:54:46Z</time>
      </trkpt>
      <trkpt lat="43.60449" lon="3.7109">
        <ele>149.108185</ele>
        <time>2012-01-21T09:55:03Z</time>
      </trkpt>
      <trkpt lat="43.60482" lon="3.71035">
        <ele>146.353104</ele>
        <time>2012-01-21T09:55:17Z</time>
      </trkpt>
      <trkpt lat="43.60493" lon="3.71021">
        <ele>146.179855</ele>
        <time>2012-01-21T09:55:22Z</time>
      </trkpt>
      <trkpt lat="43.60484" lon="3.70991">
        <ele>146.657288</ele>
        <time>2012-01-21T09:55:33Z</time>
      </trkpt>
      <trkpt lat="43.60483" lon="3.70948">
        <ele>148.834763</ele>
        <time>2012-01-21T09:55:47Z</time>
      </trkpt>
      <trkpt lat="43.60458" lon="3.70931">
        <ele>150.401932</ele>
        <time>2012-01-21T09:56:03Z</time>
      </trkpt>
      <trkpt lat="43.60446" lon="3.70922">
        <ele>151.328598</ele>
        <time>2012-01-21T09:56:12Z</time>
      </trkpt>
      <trkpt lat="43.60433" lon="3.70878">
        <ele>154.980133</ele>
        <time>2012-01-21T09:56:31Z</time>
      </trkpt>
      <trkpt lat="43.60426" lon="3.70828">
        <ele>158.253571</ele>
        <time>2012-01-21T09:56:48Z</time>
      </trkpt>
      <trkpt lat="43.60416" lon="3.70767">
        <ele>162.484528</ele>
        <time>2012-01-21T09:57:09Z</time>
      </trkpt>
      <trkpt lat="43.60412" lon="3.70721">
        <ele>164.986176</ele>
        <time>2012-01-21T09:57:27Z</time>
      </trkpt>
      <trkpt lat="43.60373" lon="3.70727">
        <ele>168.253693</ele>
        <time>2012-01-21T09:57:45Z</time>
      </trkpt>
      <trkpt lat="43.6036" lon="3.70731">
        <ele>169.30455</ele>
        <time>2012-01-21T09:57:50Z</time>
      </trkpt>
      <trkpt lat="43.60355" lon="3.70714">
        <ele>171.267761</ele>
        <time>2012-01-21T09:57:57Z</time>
      </trkpt>
      <trkpt lat="43.60362" lon="3.70658">
        <ele>174.253845</ele>
        <time>2012-01-21T09:58:15Z</time>
      </trkpt>
      <trkpt lat="43.6037" lon="3.70608">
        <ele>178.745605</ele>
        <time>2012-01-21T09:58:33Z</time>
      </trkpt>
      <trkpt lat="43.60382" lon="3.70561">
        <ele>180.807892</ele>
        <time>2012-01-21T09:58:51Z</time>
      </trkpt>
      <trkpt lat="43.60396" lon="3.70503">
        <ele>182.582748</ele>
        <time>2012-01-21T09:59:08Z</time>
      </trkpt>
      <trkpt lat="43.60408" lon="3.70449">
        <ele>187.358994</ele>
        <time>2012-01-21T09:59:25Z</time>
      </trkpt>
      <trkpt lat="43.604" lon="3.7044">
        <ele>188.477249</ele>
        <time>2012-01-21T09:59:39Z</time>
      </trkpt>
      <trkpt lat="43.604" lon="3.7044">
        <ele>188.438156</ele>
        <time>2012-01-21T10:00:20Z</time>
      </trkpt>
      <trkpt lat="43.604" lon="3.7044">
        <ele>188.461975</ele>
        <time>2012-01-21T10:03:45Z</time>
      </trkpt>
      <trkpt lat="43.60399" lon="3.7044">
        <ele>188.410553</ele>
        <time>2012-01-21T10:03:47Z</time>
      </trkpt>
      <trkpt lat="43.60394" lon="3.70436">
        <ele>188.815414</ele>
        <time>2012-01-21T10:03:52Z</time>
      </trkpt>
      <trkpt lat="43.60365" lon="3.70407">
        <ele>190.709274</ele>
        <time>2012-01-21T10:04:05Z</time>
      </trkpt>
      <trkpt lat="43.60318" lon="3.70366">
        <ele>191.111771</ele>
        <time>2012-01-21T10:04:18Z</time>
      </trkpt>
      <trkpt lat="43.603" lon="3.70356">
        <ele>192.337692</ele>
        <time>2012-01-21T10:04:24Z</time>
      </trkpt>
      <trkpt lat="43.60263" lon="3.70347">
        <ele>193.243362</ele>
        <time>2012-01-21T10:04:40Z</time>
      </trkpt>
      <trkpt lat="43.6024" lon="3.70332">
        <ele>195.087448</ele>
        <time>2012-01-21T10:04:52Z</time>
      </trkpt>
      <trkpt lat="43.60211" lon="3.70305">
        <ele>196.652054</ele>
        <time>2012-01-21T10:05:09Z</time>
      </trkpt>
      <trkpt lat="43.6019" lon="3.70277">
        <ele>200.389984</ele>
        <time>2012-01-21T10:05:22Z</time>
      </trkpt>
      <trkpt lat="43.60168" lon="3.70243">
        <ele>201.037689</ele>
        <time>2012-01-21T10:05:37Z</time>
      </trkpt>
      <trkpt lat="43.60159" lon="3.70226">
        <ele>201.290131</ele>
        <time>2012-01-21T10:05:43Z</time>
      </trkpt>
      <trkpt lat="43.60158" lon="3.70223">
        <ele>201.41481</ele>
        <time>2012-01-21T10:05:57Z</time>
      </trkpt>
      <trkpt lat="43.60156" lon="3.70216">
        <ele>201.779007</ele>
        <time>2012-01-21T10:09:00Z</time>
      </trkpt>
      <trkpt lat="43.60149" lon="3.70204">
        <ele>202.091171</ele>
        <time>2012-01-21T10:09:12Z</time>
      </trkpt>
      <trkpt lat="43.60148" lon="3.70203">
        <ele>202.032318</ele>
        <time>2012-01-21T10:09:19Z</time>
      </trkpt>
      <trkpt lat="43.60141" lon="3.70181">
        <ele>200.705933</ele>
        <time>2012-01-21T10:09:24Z</time>
      </trkpt>
      <trkpt lat="43.60131" lon="3.70151">
        <ele>199.919678</ele>
        <time>2012-01-21T10:09:29Z</time>
      </trkpt>
      <trkpt lat="43.60135" lon="3.70125">
        <ele>197.590866</ele>
        <time>2012-01-21T10:09:35Z</time>
      </trkpt>
      <trkpt lat="43.60148" lon="3.70123">
        <ele>195.619049</ele>
        <time>2012-01-21T10:09:40Z</time>
      </trkpt>
      <trkpt lat="43.60159" lon="3.70115">
        <ele>194.043716</ele>
        <time>2012-01-21T10:09:44Z</time>
      </trkpt>
      <trkpt lat="43.60174" lon="3.70079">
        <ele>187.037552</ele>
        <time>2012-01-21T10:09:52Z</time>
      </trkpt>
      <trkpt lat="43.60177" lon="3.70073">
        <ele>186.089996</ele>
        <time>2012-01-21T10:09:53Z</time>
      </trkpt>
      <trkpt lat="43.60183" lon="3.7006">
        <ele>183.743683</ele>
        <time>2012-01-21T10:09:55Z</time>
      </trkpt>
      <trkpt lat="43.60215" lon="3.7">
        <ele>175.289383</ele>
        <time>2012-01-21T10:10:03Z</time>
      </trkpt>
      <trkpt lat="43.60232" lon="3.69972">
        <ele>171.816772</ele>
        <time>2012-01-21T10:10:07Z</time>
      </trkpt>
      <trkpt lat="43.6023" lon="3.6996">
        <ele>170.379379</ele>
        <time>2012-01-21T10:10:10Z</time>
      </trkpt>
      <trkpt lat="43.60234" lon="3.69947">
        <ele>169.125046</ele>
        <time>2012-01-21T10:10:13Z</time>
      </trkpt>
      <trkpt lat="43.60231" lon="3.69921">
        <ele>166.863693</ele>
        <time>2012-01-21T10:10:18Z</time>
      </trkpt>
      <trkpt lat="43.60221" lon="3.69893">
        <ele>164.66243</ele>
        <time>2012-01-21T10:10:22Z</time>
      </trkpt>
      <trkpt lat="43.60191" lon="3.69861">
        <ele>161.278198</ele>
        <time>2012-01-21T10:10:32Z</time>
      </trkpt>
      <trkpt lat="43.6018" lon="3.6984">
        <ele>159.332565</ele>
        <time>2012-01-21T10:10:36Z</time>
      </trkpt>
      <trkpt lat="43.60175" lon="3.69825">
        <ele>159.455765</ele>
        <time>2012-01-21T10:10:47Z</time>
      </trkpt>
      <trkpt lat="43.60174" lon="3.69823">
        <ele>159.616745</ele>
        <time>2012-01-21T10:14:26Z</time>
      </trkpt>
      <trkpt lat="43.60175" lon="3.69824">
        <ele>159.609238</ele>
        <time>2012-01-21T10:14:42Z</time>
      </trkpt>
      <trkpt lat="43.60176" lon="3.69825">
        <ele>159.565765</ele>
        <time>2012-01-21T10:15:22Z</time>
      </trkpt>
      <trkpt lat="43.60163" lon="3.69829">
        <ele>158.633408</ele>
        <time>2012-01-21T10:15:28Z</time>
      </trkpt>
      <trkpt lat="43.60133" lon="3.69831">
        <ele>160.357407</ele>
        <time>2012-01-21T10:15:41Z</time>
      </trkpt>
      <trkpt lat="43.60124" lon="3.69839">
        <ele>163.356583</ele>
        <time>2012-01-21T10:15:54Z</time>
      </trkpt>
      <trkpt lat="43.60112" lon="3.69851">
        <ele>167.938705</ele>
        <time>2012-01-21T10:16:12Z</time>
      </trkpt>
      <trkpt lat="43.60111" lon="3.69852">
        <ele>168.264236</ele>
        <time>2012-01-21T10:16:43Z</time>
      </trkpt>
      <trkpt lat="43.60111" lon="3.69852">
        <ele>168.244934</ele>
        <time>2012-01-21T10:17:32Z</time>
      </trkpt>
      <trkpt lat="43.60111" lon="3.69852">
        <ele>168.247345</ele>
        <time>2012-01-21T10:17:52Z</time>
      </trkpt>
      <trkpt lat="43.60109" lon="3.69851">
        <ele>168.504288</ele>
        <time>2012-01-21T10:17:54Z</time>
      </trkpt>
      <trkpt lat="43.60099" lon="3.69855">
        <ele>169.858383</ele>
        <time>2012-01-21T10:17:59Z</time>
      </trkpt>
      <trkpt lat="43.60078" lon="3.69871">
        <ele>173.311584</ele>
        <time>2012-01-21T10:18:14Z</time>
      </trkpt>
      <trkpt lat="43.60062" lon="3.69887">
        <ele>176.632919</ele>
        <time>2012-01-21T10:18:27Z</time>
      </trkpt>
      <trkpt lat="43.60054" lon="3.69894">
        <ele>177.853806</ele>
        <time>2012-01-21T10:18:32Z</time>
      </trkpt>
      <trkpt lat="43.60049" lon="3.69901">
        <ele>178.879166</ele>
        <time>2012-01-21T10:18:36Z</time>
      </trkpt>
      <trkpt lat="43.60022" lon="3.69928">
        <ele>182.095276</ele>
        <time>2012-01-21T10:18:51Z</time>
      </trkpt>
      <trkpt lat="43.60007" lon="3.69932">
        <ele>182.625732</ele>
        <time>2012-01-21T10:18:56Z</time>
      </trkpt>
      <trkpt lat="43.59994" lon="3.69922">
        <ele>182.594879</ele>
        <time>2012-01-21T10:19:06Z</time>
      </trkpt>
      <trkpt lat="43.59989" lon="3.69915">
        <ele>182.153152</ele>
        <time>2012-01-21T10:19:16Z</time>
      </trkpt>
      <trkpt lat="43.5998" lon="3.69913">
        <ele>182.892105</ele>
        <time>2012-01-21T10:19:29Z</time>
      </trkpt>
      <trkpt lat="43.59979" lon="3.69909">
        <ele>182.63884</ele>
        <time>2012-01-21T10:19:44Z</time>
      </trkpt>
      <trkpt lat="43.59979" lon="3.69909">
        <ele>182.622528</ele>
        <time>2012-01-21T10:20:17Z</time>
      </trkpt>
      <trkpt lat="43.59974" lon="3.69906">
        <ele>182.917648</ele>
        <time>2012-01-21T10:20:22Z</time>
      </trkpt>
      <trkpt lat="43.59959" lon="3.69918">
        <ele>185.935257</ele>
        <time>2012-01-21T10:20:37Z</time>
      </trkpt>
      <trkpt lat="43.59948" lon="3.69948">
        <ele>189.491135</ele>
        <time>2012-01-21T10:20:55Z</time>
      </trkpt>
      <trkpt lat="43.59939" lon="3.69968">
        <ele>191.418274</ele>
        <time>2012-01-21T10:21:14Z</time>
      </trkpt>
      <trkpt lat="43.59938" lon="3.69967">
        <ele>191.346207</ele>
        <time>2012-01-21T10:22:20Z</time>
      </trkpt>
      <trkpt lat="43.59938" lon="3.69967">
        <ele>191.37558</ele>
        <time>2012-01-21T10:23:02Z</time>
      </trkpt>
      <trkpt lat="43.59938" lon="3.69968">
        <ele>191.406509</ele>
        <time>2012-01-21T10:24:21Z</time>
      </trkpt>
      <trkpt lat="43.59925" lon="3.69987">
        <ele>191.77179</ele>
        <time>2012-01-21T10:24:53Z</time>
      </trkpt>
      <trkpt lat="43.59923" lon="3.69992">
        <ele>191.701691</ele>
        <time>2012-01-21T10:24:54Z</time>
      </trkpt>
      <trkpt lat="43.59909" lon="3.70025">
        <ele>189.461517</ele>
        <time>2012-01-21T10:24:59Z</time>
      </trkpt>
      <trkpt lat="43.599" lon="3.70046">
        <ele>187.527756</ele>
        <time>2012-01-21T10:25:02Z</time>
      </trkpt>
      <trkpt lat="43.59886" lon="3.70079">
        <ele>183.908066</ele>
        <time>2012-01-21T10:25:07Z</time>
      </trkpt>
      <trkpt lat="43.59879" lon="3.70091">
        <ele>182.104126</ele>
        <time>2012-01-21T10:25:09Z</time>
      </trkpt>
      <trkpt lat="43.59877" lon="3.70104">
        <ele>181.1633</ele>
        <time>2012-01-21T10:25:11Z</time>
      </trkpt>
      <trkpt lat="43.59872" lon="3.70114">
        <ele>180.042999</ele>
        <time>2012-01-21T10:25:13Z</time>
      </trkpt>
      <trkpt lat="43.5987" lon="3.7013">
        <ele>179.070541</ele>
        <time>2012-01-21T10:25:16Z</time>
      </trkpt>
      <trkpt lat="43.59847" lon="3.70151">
        <ele>173.653564</ele>
        <time>2012-01-21T10:25:24Z</time>
      </trkpt>
      <trkpt lat="43.59836" lon="3.70186">
        <ele>169.845062</ele>
        <time>2012-01-21T10:25:30Z</time>
      </trkpt>
      <trkpt lat="43.5982" lon="3.70204">
        <ele>167.16777</ele>
        <time>2012-01-21T10:25:36Z</time>
      </trkpt>
      <trkpt lat="43.59811" lon="3.70204">
        <ele>165.955444</ele>
        <time>2012-01-21T10:25:38Z</time>
      </trkpt>
      <trkpt lat="43.59784" lon="3.70196">
        <ele>161.908325</ele>
        <time>2012-01-21T10:25:43Z</time>
      </trkpt>
      <trkpt lat="43.59776" lon="3.70191">
        <ele>161.426941</ele>
        <time>2012-01-21T10:25:45Z</time>
      </trkpt>
      <trkpt lat="43.59757" lon="3.70193">
        <ele>160.136093</ele>
        <time>2012-01-21T10:25:49Z</time>
      </trkpt>
      <trkpt lat="43.59737" lon="3.70215">
        <ele>159.149994</ele>
        <time>2012-01-21T10:25:53Z</time>
      </trkpt>
      <trkpt lat="43.5973" lon="3.70229">
        <ele>159.02832</ele>
        <time>2012-01-21T10:25:55Z</time>
      </trkpt>
      <trkpt lat="43.59698" lon="3.70235">
        <ele>157.745743</ele>
        <time>2012-01-21T10:26:01Z</time>
      </trkpt>
      <trkpt lat="43.59689" lon="3.70238">
        <ele>157.348419</ele>
        <time>2012-01-21T10:26:08Z</time>
      </trkpt>
      <trkpt lat="43.59688" lon="3.70238">
        <ele>157.303802</ele>
        <time>2012-01-21T10:27:39Z</time>
      </trkpt>
      <trkpt lat="43.59688" lon="3.70238">
        <ele>157.323853</ele>
        <time>2012-01-21T10:28:04Z</time>
      </trkpt>
      <trkpt lat="43.59686" lon="3.70266">
        <ele>159.072769</ele>
        <time>2012-01-21T10:28:23Z</time>
      </trkpt>
      <trkpt lat="43.59682" lon="3.70292">
        <ele>160.662445</ele>
        <time>2012-01-21T10:28:30Z</time>
      </trkpt>
      <trkpt lat="43.59666" lon="3.70358">
        <ele>162.653717</ele>
        <time>2012-01-21T10:28:48Z</time>
      </trkpt>
      <trkpt lat="43.59665" lon="3.70401">
        <ele>163.510956</ele>
        <time>2012-01-21T10:29:00Z</time>
      </trkpt>
      <trkpt lat="43.59671" lon="3.70457">
        <ele>163.658401</ele>
        <time>2012-01-21T10:29:14Z</time>
      </trkpt>
      <trkpt lat="43.59675" lon="3.70502">
        <ele>162.554672</ele>
        <time>2012-01-21T10:29:27Z</time>
      </trkpt>
      <trkpt lat="43.59676" lon="3.70531">
        <ele>161.607162</ele>
        <time>2012-01-21T10:29:33Z</time>
      </trkpt>
      <trkpt lat="43.59676" lon="3.70555">
        <ele>160.763733</ele>
        <time>2012-01-21T10:29:37Z</time>
      </trkpt>
      <trkpt lat="43.59682" lon="3.70582">
        <ele>160.052551</ele>
        <time>2012-01-21T10:29:41Z</time>
      </trkpt>
      <trkpt lat="43.59692" lon="3.70602">
        <ele>159.759415</ele>
        <time>2012-01-21T10:29:44Z</time>
      </trkpt>
      <trkpt lat="43.59705" lon="3.7062">
        <ele>159.785675</ele>
        <time>2012-01-21T10:29:47Z</time>
      </trkpt>
      <trkpt lat="43.59712" lon="3.70668">
        <ele>158.732315</ele>
        <time>2012-01-21T10:29:53Z</time>
      </trkpt>
      <trkpt lat="43.5971" lon="3.70685">
        <ele>158.036469</ele>
        <time>2012-01-21T10:29:55Z</time>
      </trkpt>
      <trkpt lat="43.59711" lon="3.70713">
        <ele>156.855972</ele>
        <time>2012-01-21T10:29:58Z</time>
      </trkpt>
      <trkpt lat="43.59721" lon="3.70751">
        <ele>155.992126</ele>
        <time>2012-01-21T10:30:02Z</time>
      </trkpt>
      <trkpt lat="43.59722" lon="3.70768">
        <ele>154.946228</ele>
        <time>2012-01-21T10:30:04Z</time>
      </trkpt>
      <trkpt lat="43.59725" lon="3.70791">
        <ele>153.799576</ele>
        <time>2012-01-21T10:30:07Z</time>
      </trkpt>
      <trkpt lat="43.59714" lon="3.70804">
        <ele>151.983047</ele>
        <time>2012-01-21T10:30:15Z</time>
      </trkpt>
      <trkpt lat="43.597" lon="3.70789">
        <ele>151.590591</ele>
        <time>2012-01-21T10:31:37Z</time>
      </trkpt>
      <trkpt lat="43.59655" lon="3.70739">
        <ele>149.8582</ele>
        <time>2012-01-21T10:31:52Z</time>
      </trkpt>
      <trkpt lat="43.59577" lon="3.70647">
        <ele>146.535858</ele>
        <time>2012-01-21T10:32:10Z</time>
      </trkpt>
      <trkpt lat="43.59537" lon="3.70595">
        <ele>143.88913</ele>
        <time>2012-01-21T10:32:20Z</time>
      </trkpt>
      <trkpt lat="43.59489" lon="3.70567">
        <ele>139.856491</ele>
        <time>2012-01-21T10:32:29Z</time>
      </trkpt>
      <trkpt lat="43.59468" lon="3.70563">
        <ele>138.125366</ele>
        <time>2012-01-21T10:32:32Z</time>
      </trkpt>
      <trkpt lat="43.59456" lon="3.70558">
        <ele>137.358871</ele>
        <time>2012-01-21T10:32:34Z</time>
      </trkpt>
      <trkpt lat="43.59433" lon="3.70568">
        <ele>135.678925</ele>
        <time>2012-01-21T10:32:39Z</time>
      </trkpt>
      <trkpt lat="43.59414" lon="3.70601">
        <ele>134.078568</ele>
        <time>2012-01-21T10:32:44Z</time>
      </trkpt>
      <trkpt lat="43.59401" lon="3.70652">
        <ele>132.822311</ele>
        <time>2012-01-21T10:32:50Z</time>
      </trkpt>
      <trkpt lat="43.59369" lon="3.70667">
        <ele>131.311966</ele>
        <time>2012-01-21T10:32:56Z</time>
      </trkpt>
      <trkpt lat="43.59363" lon="3.70664">
        <ele>131.298584</ele>
        <time>2012-01-21T10:32:57Z</time>
      </trkpt>
      <trkpt lat="43.59288" lon="3.70605">
        <ele>131.772629</ele>
        <time>2012-01-21T10:33:13Z</time>
      </trkpt>
      <trkpt lat="43.59201" lon="3.70542">
        <ele>131.259903</ele>
        <time>2012-01-21T10:33:31Z</time>
      </trkpt>
      <trkpt lat="43.59179" lon="3.7053">
        <ele>130.431381</ele>
        <time>2012-01-21T10:33:35Z</time>
      </trkpt>
      <trkpt lat="43.59138" lon="3.70533">
        <ele>130.494049</ele>
        <time>2012-01-21T10:33:42Z</time>
      </trkpt>
      <trkpt lat="43.59106" lon="3.70558">
        <ele>131.318954</ele>
        <time>2012-01-21T10:33:48Z</time>
      </trkpt>
      <trkpt lat="43.59082" lon="3.70635">
        <ele>126.10257</ele>
        <time>2012-01-21T10:33:58Z</time>
      </trkpt>
      <trkpt lat="43.59091" lon="3.70682">
        <ele>122.92482</ele>
        <time>2012-01-21T10:34:03Z</time>
      </trkpt>
      <trkpt lat="43.59094" lon="3.70729">
        <ele>120.633636</ele>
        <time>2012-01-21T10:34:07Z</time>
      </trkpt>
      <trkpt lat="43.59106" lon="3.70778">
        <ele>117.52861</ele>
        <time>2012-01-21T10:34:11Z</time>
      </trkpt>
      <trkpt lat="43.59123" lon="3.70815">
        <ele>112.544449</ele>
        <time>2012-01-21T10:34:14Z</time>
      </trkpt>
      <trkpt lat="43.59168" lon="3.70847">
        <ele>107.968895</ele>
        <time>2012-01-21T10:34:20Z</time>
      </trkpt>
      <trkpt lat="43.59177" lon="3.70845">
        <ele>108.54969</ele>
        <time>2012-01-21T10:34:21Z</time>
      </trkpt>
      <trkpt lat="43.59214" lon="3.70837">
        <ele>110.265701</ele>
        <time>2012-01-21T10:34:25Z</time>
      </trkpt>
      <trkpt lat="43.59229" lon="3.70851">
        <ele>107.823463</ele>
        <time>2012-01-21T10:34:30Z</time>
      </trkpt>
      <trkpt lat="43.59223" lon="3.7086">
        <ele>106.400299</ele>
        <time>2012-01-21T10:34:32Z</time>
      </trkpt>
      <trkpt lat="43.5918" lon="3.70918">
        <ele>113.170631</ele>
        <time>2012-01-21T10:34:49Z</time>
      </trkpt>
      <trkpt lat="43.59142" lon="3.70952">
        <ele>114.78775</ele>
        <time>2012-01-21T10:35:05Z</time>
      </trkpt>
      <trkpt lat="43.59103" lon="3.70991">
        <ele>116.878853</ele>
        <time>2012-01-21T10:35:19Z</time>
      </trkpt>
      <trkpt lat="43.59098" lon="3.71003">
        <ele>118.21859</ele>
        <time>2012-01-21T10:35:22Z</time>
      </trkpt>
      <trkpt lat="43.59076" lon="3.71004">
        <ele>120.54789</ele>
        <time>2012-01-21T10:35:28Z</time>
      </trkpt>
      <trkpt lat="43.59015" lon="3.70992">
        <ele>124.946007</ele>
        <time>2012-01-21T10:35:45Z</time>
      </trkpt>
      <trkpt lat="43.58986" lon="3.70965">
        <ele>126.118782</ele>
        <time>2012-01-21T10:35:55Z</time>
      </trkpt>
      <trkpt lat="43.58963" lon="3.7089">
        <ele>125.855042</ele>
        <time>2012-01-21T10:36:13Z</time>
      </trkpt>
      <trkpt lat="43.58937" lon="3.70818">
        <ele>129.850983</ele>
        <time>2012-01-21T10:36:32Z</time>
      </trkpt>
      <trkpt lat="43.5893" lon="3.70755">
        <ele>129.347717</ele>
        <time>2012-01-21T10:36:49Z</time>
      </trkpt>
      <trkpt lat="43.58923" lon="3.70739">
        <ele>130.610962</ele>
        <time>2012-01-21T10:36:58Z</time>
      </trkpt>
      <trkpt lat="43.58904" lon="3.70719">
        <ele>131.434631</ele>
        <time>2012-01-21T10:37:13Z</time>
      </trkpt>
      <trkpt lat="43.58884" lon="3.7069">
        <ele>131.581161</ele>
        <time>2012-01-21T10:37:32Z</time>
      </trkpt>
      <trkpt lat="43.58876" lon="3.70682">
        <ele>131.89328</ele>
        <time>2012-01-21T10:37:38Z</time>
      </trkpt>
      <trkpt lat="43.58874" lon="3.70681">
        <ele>131.84549</ele>
        <time>2012-01-21T10:37:40Z</time>
      </trkpt>
      <trkpt lat="43.58872" lon="3.70676">
        <ele>131.545837</ele>
        <time>2012-01-21T10:37:44Z</time>
      </trkpt>
      <trkpt lat="43.58869" lon="3.70675">
        <ele>131.65657</ele>
        <time>2012-01-21T10:37:46Z</time>
      </trkpt>
      <trkpt lat="43.58868" lon="3.70672">
        <ele>131.467148</ele>
        <time>2012-01-21T10:37:48Z</time>
      </trkpt>
      <trkpt lat="43.58861" lon="3.7067">
        <ele>131.843658</ele>
        <time>2012-01-21T10:37:54Z</time>
      </trkpt>
      <trkpt lat="43.58857" lon="3.70666">
        <ele>131.381531</ele>
        <time>2012-01-21T10:37:59Z</time>
      </trkpt>
      <trkpt lat="43.58852" lon="3.70665">
        <ele>131.659729</ele>
        <time>2012-01-21T10:38:03Z</time>
      </trkpt>
      <trkpt lat="43.58823" lon="3.70649">
        <ele>131.499908</ele>
        <time>2012-01-21T10:38:20Z</time>
      </trkpt>
      <trkpt lat="43.58777" lon="3.70603">
        <ele>132.337463</ele>
        <time>2012-01-21T10:38:40Z</time>
      </trkpt>
      <trkpt lat="43.58717" lon="3.70548">
        <ele>134.28212</ele>
        <time>2012-01-21T10:38:59Z</time>
      </trkpt>
      <trkpt lat="43.58659" lon="3.70502">
        <ele>132.116638</ele>
        <time>2012-01-21T10:39:15Z</time>
      </trkpt>
      <trkpt lat="43.58635" lon="3.70505">
        <ele>131.088318</ele>
        <time>2012-01-21T10:39:22Z</time>
      </trkpt>
      <trkpt lat="43.58617" lon="3.70588">
        <ele>132.831375</ele>
        <time>2012-01-21T10:39:38Z</time>
      </trkpt>
      <trkpt lat="43.58608" lon="3.70633">
        <ele>133.371918</ele>
        <time>2012-01-21T10:39:46Z</time>
      </trkpt>
      <trkpt lat="43.58606" lon="3.70765">
        <ele>132.761169</ele>
        <time>2012-01-21T10:40:07Z</time>
      </trkpt>
      <trkpt lat="43.58602" lon="3.70889">
        <ele>128.850372</ele>
        <time>2012-01-21T10:40:24Z</time>
      </trkpt>
      <trkpt lat="43.586" lon="3.70954">
        <ele>125.385361</ele>
        <time>2012-01-21T10:40:31Z</time>
      </trkpt>
      <trkpt lat="43.58604" lon="3.7102">
        <ele>123.266205</ele>
        <time>2012-01-21T10:40:38Z</time>
      </trkpt>
      <trkpt lat="43.58598" lon="3.71139">
        <ele>121.715584</ele>
        <time>2012-01-21T10:40:51Z</time>
      </trkpt>
      <trkpt lat="43.58601" lon="3.71207">
        <ele>121.887909</ele>
        <time>2012-01-21T10:41:00Z</time>
      </trkpt>
      <trkpt lat="43.58581" lon="3.71235">
        <ele>120.725746</ele>
        <time>2012-01-21T10:41:06Z</time>
      </trkpt>
      <trkpt lat="43.5857" lon="3.71237">
        <ele>120.202713</ele>
        <time>2012-01-21T10:41:08Z</time>
      </trkpt>
      <trkpt lat="43.58507" lon="3.71257">
        <ele>117.768539</ele>
        <time>2012-01-21T10:41:19Z</time>
      </trkpt>
      <trkpt lat="43.58483" lon="3.71305">
        <ele>116.52758</ele>
        <time>2012-01-21T10:41:27Z</time>
      </trkpt>
      <trkpt lat="43.58478" lon="3.71473">
        <ele>114.396645</ele>
        <time>2012-01-21T10:41:47Z</time>
      </trkpt>
      <trkpt lat="43.58475" lon="3.71672">
        <ele>112.272102</ele>
        <time>2012-01-21T10:42:10Z</time>
      </trkpt>
      <trkpt lat="43.58472" lon="3.71823">
        <ele>113.680313</ele>
        <time>2012-01-21T10:42:27Z</time>
      </trkpt>
      <trkpt lat="43.58473" lon="3.71913">
        <ele>116.546715</ele>
        <time>2012-01-21T10:42:42Z</time>
      </trkpt>
      <trkpt lat="43.58486" lon="3.72023">
        <ele>121.070427</ele>
        <time>2012-01-21T10:43:03Z</time>
      </trkpt>
      <trkpt lat="43.58498" lon="3.72109">
        <ele>122.938988</ele>
        <time>2012-01-21T10:43:22Z</time>
      </trkpt>
      <trkpt lat="43.58513" lon="3.72233">
        <ele>123.261368</ele>
        <time>2012-01-21T10:43:48Z</time>
      </trkpt>
      <trkpt lat="43.58516" lon="3.72291">
        <ele>123.22007</ele>
        <time>2012-01-21T10:44:04Z</time>
      </trkpt>
      <trkpt lat="43.58517" lon="3.72295">
        <ele>123.217255</ele>
        <time>2012-01-21T10:46:34Z</time>
      </trkpt>
      <trkpt lat="43.58524" lon="3.72299">
        <ele>123.267891</ele>
        <time>2012-01-21T10:46:38Z</time>
      </trkpt>
      <trkpt lat="43.58566" lon="3.723">
        <ele>123.512909</ele>
        <time>2012-01-21T10:46:57Z</time>
      </trkpt>
      <trkpt lat="43.58614" lon="3.72301">
        <ele>123.239128</ele>
        <time>2012-01-21T10:47:11Z</time>
      </trkpt>
      <trkpt lat="43.58676" lon="3.72306">
        <ele>121.140839</ele>
        <time>2012-01-21T10:47:27Z</time>
      </trkpt>
      <trkpt lat="43.58681" lon="3.72307">
        <ele>120.924278</ele>
        <time>2012-01-21T10:47:28Z</time>
      </trkpt>
      <trkpt lat="43.58769" lon="3.7236">
        <ele>116</ele>
        <time>2012-01-21T10:47:44Z</time>
      </trkpt>
      <trkpt lat="43.58857" lon="3.72403">
        <ele>115.999214</ele>
        <time>2012-01-21T10:47:59Z</time>
      </trkpt>
      <trkpt lat="43.58947" lon="3.72434">
        <ele>117.471771</ele>
        <time>2012-01-21T10:48:18Z</time>
      </trkpt>
      <trkpt lat="43.59051" lon="3.72471">
        <ele>119.167923</ele>
        <time>2012-01-21T10:48:39Z</time>
      </trkpt>
      <trkpt lat="43.59116" lon="3.72483">
        <ele>120.282921</ele>
        <time>2012-01-21T10:48:52Z</time>
      </trkpt>
      <trkpt lat="43.59161" lon="3.72506">
        <ele>120.447906</ele>
        <time>2012-01-21T10:49:02Z</time>
      </trkpt>
      <trkpt lat="43.5926" lon="3.72584">
        <ele>125.288765</ele>
        <time>2012-01-21T10:49:25Z</time>
      </trkpt>
      <trkpt lat="43.59351" lon="3.72633">
        <ele>129.493942</ele>
        <time>2012-01-21T10:49:46Z</time>
      </trkpt>
      <trkpt lat="43.59429" lon="3.72678">
        <ele>134.487625</ele>
        <time>2012-01-21T10:50:06Z</time>
      </trkpt>
      <trkpt lat="43.59492" lon="3.72727">
        <ele>138.560974</ele>
        <time>2012-01-21T10:50:28Z</time>
      </trkpt>
      <trkpt lat="43.59519" lon="3.72745">
        <ele>140.16098</ele>
        <time>2012-01-21T10:50:45Z</time>
      </trkpt>
      <trkpt lat="43.59519" lon="3.72747">
        <ele>140.1185</ele>
        <time>2012-01-21T10:51:41Z</time>
      </trkpt>
      <trkpt lat="43.59514" lon="3.72757">
        <ele>139.707428</ele>
        <time>2012-01-21T10:51:44Z</time>
      </trkpt>
      <trkpt lat="43.59505" lon="3.72784">
        <ele>139.011719</ele>
        <time>2012-01-21T10:51:49Z</time>
      </trkpt>
      <trkpt lat="43.59486" lon="3.72836">
        <ele>141.309555</ele>
        <time>2012-01-21T10:51:59Z</time>
      </trkpt>
      <trkpt lat="43.5946" lon="3.72911">
        <ele>142.705353</ele>
        <time>2012-01-21T10:52:11Z</time>
      </trkpt>
      <trkpt lat="43.59455" lon="3.7294">
        <ele>143.811218</ele>
        <time>2012-01-21T10:52:15Z</time>
      </trkpt>
      <trkpt lat="43.59455" lon="3.72973">
        <ele>145.46669</ele>
        <time>2012-01-21T10:52:20Z</time>
      </trkpt>
      <trkpt lat="43.5947" lon="3.72996">
        <ele>148.028488</ele>
        <time>2012-01-21T10:52:27Z</time>
      </trkpt>
      <trkpt lat="43.59532" lon="3.7302">
        <ele>152.11441</ele>
        <time>2012-01-21T10:52:46Z</time>
      </trkpt>
      <trkpt lat="43.5953" lon="3.73037">
        <ele>153.195862</ele>
        <time>2012-01-21T10:52:52Z</time>
      </trkpt>
      <trkpt lat="43.59513" lon="3.73052">
        <ele>153.997162</ele>
        <time>2012-01-21T10:53:08Z</time>
      </trkpt>
      <trkpt lat="43.59513" lon="3.73052">
        <ele>153.9879</ele>
        <time>2012-01-21T10:53:34Z</time>
      </trkpt>
      <trkpt lat="43.59507" lon="3.73057">
        <ele>154.216721</ele>
        <time>2012-01-21T10:53:39Z</time>
      </trkpt>
      <trkpt lat="43.59465" lon="3.73082">
        <ele>154.849365</ele>
        <time>2012-01-21T10:53:58Z</time>
      </trkpt>
      <trkpt lat="43.59393" lon="3.73114">
        <ele>154.549957</ele>
        <time>2012-01-21T10:54:19Z</time>
      </trkpt>
      <trkpt lat="43.59339" lon="3.73132">
        <ele>155.14357</ele>
        <time>2012-01-21T10:54:34Z</time>
      </trkpt>
      <trkpt lat="43.59315" lon="3.73138">
        <ele>155.287155</ele>
        <time>2012-01-21T10:54:42Z</time>
      </trkpt>
      <trkpt lat="43.59312" lon="3.7315">
        <ele>156.100983</ele>
        <time>2012-01-21T10:54:46Z</time>
      </trkpt>
      <trkpt lat="43.59308" lon="3.73148">
        <ele>155.884842</ele>
        <time>2012-01-21T10:54:51Z</time>
      </trkpt>
      <trkpt lat="43.59299" lon="3.73149">
        <ele>155.746338</ele>
        <time>2012-01-21T10:54:57Z</time>
      </trkpt>
      <trkpt lat="43.59271" lon="3.73215">
        <ele>155.212219</ele>
        <time>2012-01-21T10:55:10Z</time>
      </trkpt>
      <trkpt lat="43.59251" lon="3.73256">
        <ele>151.238297</ele>
        <time>2012-01-21T10:55:15Z</time>
      </trkpt>
      <trkpt lat="43.59237" lon="3.7328">
        <ele>149.219437</ele>
        <time>2012-01-21T10:55:18Z</time>
      </trkpt>
      <trkpt lat="43.59227" lon="3.73303">
        <ele>146.960358</ele>
        <time>2012-01-21T10:55:21Z</time>
      </trkpt>
      <trkpt lat="43.59207" lon="3.73326">
        <ele>144.080231</ele>
        <time>2012-01-21T10:55:24Z</time>
      </trkpt>
      <trkpt lat="43.59161" lon="3.73362">
        <ele>143.3349</ele>
        <time>2012-01-21T10:55:30Z</time>
      </trkpt>
      <trkpt lat="43.59127" lon="3.73384">
        <ele>140.43396</ele>
        <time>2012-01-21T10:55:35Z</time>
      </trkpt>
      <trkpt lat="43.59101" lon="3.734">
        <ele>137.494919</ele>
        <time>2012-01-21T10:55:40Z</time>
      </trkpt>
      <trkpt lat="43.59079" lon="3.73416">
        <ele>137.165588</ele>
        <time>2012-01-21T10:55:44Z</time>
      </trkpt>
      <trkpt lat="43.59042" lon="3.73433">
        <ele>136.031036</ele>
        <time>2012-01-21T10:55:50Z</time>
      </trkpt>
      <trkpt lat="43.59022" lon="3.73436">
        <ele>135.364197</ele>
        <time>2012-01-21T10:55:53Z</time>
      </trkpt>
      <trkpt lat="43.58996" lon="3.73433">
        <ele>134.608459</ele>
        <time>2012-01-21T10:55:57Z</time>
      </trkpt>
      <trkpt lat="43.58977" lon="3.73434">
        <ele>134.251846</ele>
        <time>2012-01-21T10:56:01Z</time>
      </trkpt>
      <trkpt lat="43.58936" lon="3.73477">
        <ele>136.068939</ele>
        <time>2012-01-21T10:56:15Z</time>
      </trkpt>
      <trkpt lat="43.58899" lon="3.73544">
        <ele>136.075638</ele>
        <time>2012-01-21T10:56:32Z</time>
      </trkpt>
      <trkpt lat="43.58894" lon="3.73549">
        <ele>135.803741</ele>
        <time>2012-01-21T10:56:46Z</time>
      </trkpt>
      <trkpt lat="43.58879" lon="3.73575">
        <ele>135.233536</ele>
        <time>2012-01-21T10:57:04Z</time>
      </trkpt>
      <trkpt lat="43.58869" lon="3.73593">
        <ele>134.421173</ele>
        <time>2012-01-21T10:57:07Z</time>
      </trkpt>
      <trkpt lat="43.5886" lon="3.73606">
        <ele>133.420029</ele>
        <time>2012-01-21T10:57:09Z</time>
      </trkpt>
      <trkpt lat="43.58835" lon="3.73631">
        <ele>130.440506</ele>
        <time>2012-01-21T10:57:13Z</time>
      </trkpt>
      <trkpt lat="43.58823" lon="3.73647">
        <ele>129.78064</ele>
        <time>2012-01-21T10:57:15Z</time>
      </trkpt>
      <trkpt lat="43.58769" lon="3.73681">
        <ele>123.098351</ele>
        <time>2012-01-21T10:57:22Z</time>
      </trkpt>
      <trkpt lat="43.58689" lon="3.73781">
        <ele>114.536842</ele>
        <time>2012-01-21T10:57:33Z</time>
      </trkpt>
      <trkpt lat="43.58672" lon="3.73816">
        <ele>112.071983</ele>
        <time>2012-01-21T10:57:41Z</time>
      </trkpt>
      <trkpt lat="43.5869" lon="3.73895">
        <ele>113.005547</ele>
        <time>2012-01-21T10:57:57Z</time>
      </trkpt>
      <trkpt lat="43.58708" lon="3.73949">
        <ele>111.116951</ele>
        <time>2012-01-21T10:58:13Z</time>
      </trkpt>
      <trkpt lat="43.58711" lon="3.73959">
        <ele>110.049225</ele>
        <time>2012-01-21T10:58:25Z</time>
      </trkpt>
      <trkpt lat="43.58721" lon="3.73966">
        <ele>109.092171</ele>
        <time>2012-01-21T10:58:43Z</time>
      </trkpt>
      <trkpt lat="43.58745" lon="3.74022">
        <ele>105.739906</ele>
        <time>2012-01-21T10:58:51Z</time>
      </trkpt>
      <trkpt lat="43.58746" lon="3.74041">
        <ele>106.681358</ele>
        <time>2012-01-21T10:58:53Z</time>
      </trkpt>
      <trkpt lat="43.58729" lon="3.74091">
        <ele>108.084778</ele>
        <time>2012-01-21T10:59:02Z</time>
      </trkpt>
      <trkpt lat="43.5873" lon="3.74159">
        <ele>111.803886</ele>
        <time>2012-01-21T10:59:18Z</time>
      </trkpt>
      <trkpt lat="43.58729" lon="3.74184">
        <ele>112.74897</ele>
        <time>2012-01-21T10:59:26Z</time>
      </trkpt>
      <trkpt lat="43.58731" lon="3.74192">
        <ele>112.957184</ele>
        <time>2012-01-21T10:59:31Z</time>
      </trkpt>
      <trkpt lat="43.58729" lon="3.74225">
        <ele>111.87561</ele>
        <time>2012-01-21T10:59:49Z</time>
      </trkpt>
      <trkpt lat="43.58723" lon="3.7425">
        <ele>111.058998</ele>
        <time>2012-01-21T10:59:54Z</time>
      </trkpt>
      <trkpt lat="43.5872" lon="3.74277">
        <ele>109.126877</ele>
        <time>2012-01-21T10:59:58Z</time>
      </trkpt>
      <trkpt lat="43.58704" lon="3.74319">
        <ele>105.803902</ele>
        <time>2012-01-21T11:00:03Z</time>
      </trkpt>
      <trkpt lat="43.58654" lon="3.74412">
        <ele>105.637352</ele>
        <time>2012-01-21T11:00:16Z</time>
      </trkpt>
      <trkpt lat="43.58647" lon="3.74434">
        <ele>106.068787</ele>
        <time>2012-01-21T11:00:20Z</time>
      </trkpt>
      <trkpt lat="43.58654" lon="3.74537">
        <ele>104.600281</ele>
        <time>2012-01-21T11:00:35Z</time>
      </trkpt>
      <trkpt lat="43.58658" lon="3.74597">
        <ele>104.436172</ele>
        <time>2012-01-21T11:00:43Z</time>
      </trkpt>
      <trkpt lat="43.58649" lon="3.74636">
        <ele>104.22821</ele>
        <time>2012-01-21T11:00:50Z</time>
      </trkpt>
      <trkpt lat="43.58614" lon="3.74706">
        <ele>105</ele>
        <time>2012-01-21T11:01:04Z</time>
      </trkpt>
      <trkpt lat="43.58618" lon="3.74728">
        <ele>105</ele>
        <time>2012-01-21T11:01:09Z</time>
      </trkpt>
      <trkpt lat="43.58643" lon="3.74746">
        <ele>104.954147</ele>
        <time>2012-01-21T11:01:15Z</time>
      </trkpt>
      <trkpt lat="43.58655" lon="3.74749">
        <ele>104.864464</ele>
        <time>2012-01-21T11:01:17Z</time>
      </trkpt>
      <trkpt lat="43.58668" lon="3.74762">
        <ele>104.461296</ele>
        <time>2012-01-21T11:01:20Z</time>
      </trkpt>
      <trkpt lat="43.58683" lon="3.74766">
        <ele>104.331581</ele>
        <time>2012-01-21T11:01:25Z</time>
      </trkpt>
      <trkpt lat="43.58708" lon="3.74763">
        <ele>104.447632</ele>
        <time>2012-01-21T11:01:32Z</time>
      </trkpt>
      <trkpt lat="43.58731" lon="3.74769">
        <ele>104.265129</ele>
        <time>2012-01-21T11:01:37Z</time>
      </trkpt>
      <trkpt lat="43.58741" lon="3.74769">
        <ele>104.303505</ele>
        <time>2012-01-21T11:01:39Z</time>
      </trkpt>
      <trkpt lat="43.5875" lon="3.7477">
        <ele>104.263252</ele>
        <time>2012-01-21T11:01:41Z</time>
      </trkpt>
      <trkpt lat="43.58772" lon="3.74761">
        <ele>104.563988</ele>
        <time>2012-01-21T11:01:47Z</time>
      </trkpt>
      <trkpt lat="43.58783" lon="3.7476">
        <ele>104.611557</ele>
        <time>2012-01-21T11:01:50Z</time>
      </trkpt>
      <trkpt lat="43.58796" lon="3.7475">
        <ele>104.954506</ele>
        <time>2012-01-21T11:01:54Z</time>
      </trkpt>
      <trkpt lat="43.58819" lon="3.74731">
        <ele>105.819778</ele>
        <time>2012-01-21T11:02:02Z</time>
      </trkpt>
      <trkpt lat="43.5883" lon="3.7473">
        <ele>105.986084</ele>
        <time>2012-01-21T11:02:05Z</time>
      </trkpt>
      <trkpt lat="43.58846" lon="3.74729">
        <ele>106.422729</ele>
        <time>2012-01-21T11:02:09Z</time>
      </trkpt>
      <trkpt lat="43.58859" lon="3.74729">
        <ele>106.713539</ele>
        <time>2012-01-21T11:02:12Z</time>
      </trkpt>
      <trkpt lat="43.58867" lon="3.74725">
        <ele>107.067436</ele>
        <time>2012-01-21T11:02:14Z</time>
      </trkpt>
      <trkpt lat="43.58881" lon="3.74725">
        <ele>107.490929</ele>
        <time>2012-01-21T11:02:23Z</time>
      </trkpt>
      <trkpt lat="43.5888" lon="3.74727">
        <ele>107.368744</ele>
        <time>2012-01-21T11:02:35Z</time>
      </trkpt>
      <trkpt lat="43.58896" lon="3.74737">
        <ele>107.573563</ele>
        <time>2012-01-21T11:02:43Z</time>
      </trkpt>
      <trkpt lat="43.58899" lon="3.7473">
        <ele>107.959801</ele>
        <time>2012-01-21T11:02:48Z</time>
      </trkpt>
      <trkpt lat="43.58901" lon="3.74721">
        <ele>108.385933</ele>
        <time>2012-01-21T11:02:53Z</time>
      </trkpt>
      <trkpt lat="43.58903" lon="3.74718">
        <ele>108.554642</ele>
        <time>2012-01-21T11:02:55Z</time>
      </trkpt>
      <trkpt lat="43.58929" lon="3.74714">
        <ele>109.62162</ele>
        <time>2012-01-21T11:03:11Z</time>
      </trkpt>
      <trkpt lat="43.58986" lon="3.74714">
        <ele>110.394707</ele>
        <time>2012-01-21T11:03:31Z</time>
      </trkpt>
      <trkpt lat="43.59006" lon="3.74724">
        <ele>109.486656</ele>
        <time>2012-01-21T11:03:37Z</time>
      </trkpt>
      <trkpt lat="43.59021" lon="3.74733">
        <ele>108.20771</ele>
        <time>2012-01-21T11:03:41Z</time>
      </trkpt>
      <trkpt lat="43.59046" lon="3.74741">
        <ele>106.26313</ele>
        <time>2012-01-21T11:03:46Z</time>
      </trkpt>
      <trkpt lat="43.59068" lon="3.74718">
        <ele>105.865883</ele>
        <time>2012-01-21T11:03:53Z</time>
      </trkpt>
      <trkpt lat="43.5907" lon="3.74708">
        <ele>106.271919</ele>
        <time>2012-01-21T11:03:55Z</time>
      </trkpt>
      <trkpt lat="43.59092" lon="3.74696">
        <ele>104.59684</ele>
        <time>2012-01-21T11:04:01Z</time>
      </trkpt>
      <trkpt lat="43.59106" lon="3.74694">
        <ele>102.859261</ele>
        <time>2012-01-21T11:04:03Z</time>
      </trkpt>
      <trkpt lat="43.5915" lon="3.74668">
        <ele>98.614418</ele>
        <time>2012-01-21T11:04:09Z</time>
      </trkpt>
      <trkpt lat="43.59173" lon="3.74637">
        <ele>97.985268</ele>
        <time>2012-01-21T11:04:14Z</time>
      </trkpt>
      <trkpt lat="43.5919" lon="3.74634">
        <ele>96.051094</ele>
        <time>2012-01-21T11:04:19Z</time>
      </trkpt>
      <trkpt lat="43.59214" lon="3.74723">
        <ele>97.438255</ele>
        <time>2012-01-21T11:04:37Z</time>
      </trkpt>
      <trkpt lat="43.59215" lon="3.74735">
        <ele>97.495972</ele>
        <time>2012-01-21T11:04:39Z</time>
      </trkpt>
      <trkpt lat="43.59207" lon="3.74767">
        <ele>97.153595</ele>
        <time>2012-01-21T11:04:45Z</time>
      </trkpt>
      <trkpt lat="43.59185" lon="3.74831">
        <ele>99.328773</ele>
        <time>2012-01-21T11:05:00Z</time>
      </trkpt>
      <trkpt lat="43.59194" lon="3.74891">
        <ele>102.450813</ele>
        <time>2012-01-21T11:05:15Z</time>
      </trkpt>
      <trkpt lat="43.59194" lon="3.74958">
        <ele>103.764503</ele>
        <time>2012-01-21T11:05:33Z</time>
      </trkpt>
      <trkpt lat="43.59206" lon="3.75045">
        <ele>101.398407</ele>
        <time>2012-01-21T11:05:49Z</time>
      </trkpt>
      <trkpt lat="43.59209" lon="3.7506">
        <ele>100.976791</ele>
        <time>2012-01-21T11:05:51Z</time>
      </trkpt>
      <trkpt lat="43.5921" lon="3.75092">
        <ele>101.981537</ele>
        <time>2012-01-21T11:05:57Z</time>
      </trkpt>
      <trkpt lat="43.59164" lon="3.75117">
        <ele>101.027351</ele>
        <time>2012-01-21T11:06:11Z</time>
      </trkpt>
      <trkpt lat="43.59084" lon="3.75174">
        <ele>103.50489</ele>
        <time>2012-01-21T11:06:30Z</time>
      </trkpt>
      <trkpt lat="43.59007" lon="3.75277">
        <ele>102.388649</ele>
        <time>2012-01-21T11:06:51Z</time>
      </trkpt>
      <trkpt lat="43.58976" lon="3.75317">
        <ele>100.803993</ele>
        <time>2012-01-21T11:06:58Z</time>
      </trkpt>
      <trkpt lat="43.58952" lon="3.75344">
        <ele>99.507278</ele>
        <time>2012-01-21T11:07:02Z</time>
      </trkpt>
      <trkpt lat="43.58932" lon="3.75372">
        <ele>98.570808</ele>
        <time>2012-01-21T11:07:05Z</time>
      </trkpt>
      <trkpt lat="43.58948" lon="3.75385">
        <ele>97.751656</ele>
        <time>2012-01-21T11:07:10Z</time>
      </trkpt>
      <trkpt lat="43.58996" lon="3.75419">
        <ele>99.145157</ele>
        <time>2012-01-21T11:07:20Z</time>
      </trkpt>
      <trkpt lat="43.5901" lon="3.75435">
        <ele>99.659546</ele>
        <time>2012-01-21T11:07:25Z</time>
      </trkpt>
      <trkpt lat="43.59062" lon="3.7547">
        <ele>102.273613</ele>
        <time>2012-01-21T11:07:43Z</time>
      </trkpt>
      <trkpt lat="43.59064" lon="3.75471">
        <ele>103.113159</ele>
        <time>2012-01-21T08:17:51Z</time>
      </trkpt>
      <trkpt lat="43.5907" lon="3.75475">
        <ele>103.749435</ele>
        <time>2012-01-21T08:17:56Z</time>
      </trkpt>
      <trkpt lat="43.59082" lon="3.75484">
        <ele>104.722107</ele>
        <time>2012-01-21T08:18:04Z</time>
      </trkpt>
      <trkpt lat="43.59103" lon="3.75497">
        <ele>106.059448</ele>
        <time>2012-01-21T08:18:17Z</time>
      </trkpt>
      <trkpt lat="43.59107" lon="3.75493">
        <ele>106.343155</ele>
        <time>2012-01-21T08:18:21Z</time>
      </trkpt>
      <trkpt lat="43.59102" lon="3.75497">
        <ele>105.996277</ele>
        <time>2012-01-21T08:18:28Z</time>
      </trkpt>
      <trkpt lat="43.59108" lon="3.75495">
        <ele>106.401566</ele>
        <time>2012-01-21T08:18:34Z</time>
      </trkpt>
      <trkpt lat="43.59109" lon="3.75491">
        <ele>106.544762</ele>
        <time>2012-01-21T08:18:36Z</time>
      </trkpt>
      <trkpt lat="43.59114" lon="3.75485">
        <ele>106.987114</ele>
        <time>2012-01-21T08:18:40Z</time>
      </trkpt>
      <trkpt lat="43.59123" lon="3.75478">
        <ele>107.649002</ele>
        <time>2012-01-21T08:18:45Z</time>
      </trkpt>
      <trkpt lat="43.5916" lon="3.75445">
        <ele>110.002472</ele>
        <time>2012-01-21T08:19:02Z</time>
      </trkpt>
      <trkpt lat="43.59198" lon="3.75409">
        <ele>111.485123</ele>
        <time>2012-01-21T08:19:19Z</time>
      </trkpt>
      <trkpt lat="43.59271" lon="3.75345">
        <ele>112.48349</ele>
        <time>2012-01-21T08:19:44Z</time>
      </trkpt>
      <trkpt lat="43.59278" lon="3.7534">
        <ele>112.308975</ele>
        <time>2012-01-21T08:19:46Z</time>
      </trkpt>
      <trkpt lat="43.59339" lon="3.75284">
        <ele>112.087936</ele>
        <time>2012-01-21T08:20:05Z</time>
      </trkpt>
      <trkpt lat="43.59399" lon="3.75232">
        <ele>113.355392</ele>
        <time>2012-01-21T08:20:24Z</time>
      </trkpt>
      <trkpt lat="43.59456" lon="3.75178">
        <ele>116.140457</ele>
        <time>2012-01-21T08:20:45Z</time>
      </trkpt>
      <trkpt lat="43.59518" lon="3.75125">
        <ele>118.913788</ele>
        <time>2012-01-21T08:21:06Z</time>
      </trkpt>
      <trkpt lat="43.59556" lon="3.75087">
        <ele>120.538002</ele>
        <time>2012-01-21T08:21:21Z</time>
      </trkpt>
      <trkpt lat="43.59603" lon="3.75046">
        <ele>121.659782</ele>
        <time>2012-01-21T08:21:38Z</time>
      </trkpt>
      <trkpt lat="43.59654" lon="3.74991">
        <ele>122.036263</ele>
        <time>2012-01-21T08:21:58Z</time>
      </trkpt>
      <trkpt lat="43.59671" lon="3.74992">
        <ele>122.415932</ele>
        <time>2012-01-21T08:22:07Z</time>
      </trkpt>
      <trkpt lat="43.59673" lon="3.74998">
        <ele>122.570122</ele>
        <time>2012-01-21T08:22:44Z</time>
      </trkpt>
      <trkpt lat="43.59683" lon="3.75009">
        <ele>122.633774</ele>
        <time>2012-01-21T08:22:47Z</time>
      </trkpt>
      <trkpt lat="43.59699" lon="3.75031">
        <ele>121.85421</ele>
        <time>2012-01-21T08:22:51Z</time>
      </trkpt>
      <trkpt lat="43.59714" lon="3.75047">
        <ele>120.920853</ele>
        <time>2012-01-21T08:22:54Z</time>
      </trkpt>
      <trkpt lat="43.59739" lon="3.75095">
        <ele>117.259209</ele>
        <time>2012-01-21T08:23:01Z</time>
      </trkpt>
      <trkpt lat="43.59753" lon="3.75121">
        <ele>114.422066</ele>
        <time>2012-01-21T08:23:06Z</time>
      </trkpt>
      <trkpt lat="43.59764" lon="3.75171">
        <ele>108.611732</ele>
        <time>2012-01-21T08:23:16Z</time>
      </trkpt>
      <trkpt lat="43.59765" lon="3.75175">
        <ele>107.997658</ele>
        <time>2012-01-21T08:23:17Z</time>
      </trkpt>
      <trkpt lat="43.59773" lon="3.7518">
        <ele>106.351418</ele>
        <time>2012-01-21T08:23:21Z</time>
      </trkpt>
      <trkpt lat="43.59782" lon="3.7518">
        <ele>105.075874</ele>
        <time>2012-01-21T08:23:25Z</time>
      </trkpt>
      <trkpt lat="43.59799" lon="3.75201">
        <ele>100.073624</ele>
        <time>2012-01-21T08:23:33Z</time>
      </trkpt>
      <trkpt lat="43.5981" lon="3.75212">
        <ele>97.207848</ele>
        <time>2012-01-21T08:23:37Z</time>
      </trkpt>
      <trkpt lat="43.59815" lon="3.75216">
        <ele>95.976845</ele>
        <time>2012-01-21T08:23:39Z</time>
      </trkpt>
      <trkpt lat="43.59815" lon="3.75223">
        <ele>94.984161</ele>
        <time>2012-01-21T08:23:42Z</time>
      </trkpt>
      <trkpt lat="43.5982" lon="3.75236">
        <ele>92.864906</ele>
        <time>2012-01-21T08:23:46Z</time>
      </trkpt>
      <trkpt lat="43.59836" lon="3.75256">
        <ele>89.887749</ele>
        <time>2012-01-21T08:23:52Z</time>
      </trkpt>
      <trkpt lat="43.59842" lon="3.75275">
        <ele>89.820732</ele>
        <time>2012-01-21T08:23:59Z</time>
      </trkpt>
      <trkpt lat="43.59849" lon="3.7528">
        <ele>90.726791</ele>
        <time>2012-01-21T08:24:03Z</time>
      </trkpt>
      <trkpt lat="43.59852" lon="3.7528">
        <ele>90.6744</ele>
        <time>2012-01-21T08:24:23Z</time>
      </trkpt>
      <trkpt lat="43.59851" lon="3.7528">
        <ele>90.708321</ele>
        <time>2012-01-21T08:28:43Z</time>
      </trkpt>
      <trkpt lat="43.59855" lon="3.75278">
        <ele>90.494247</ele>
        <time>2012-01-21T08:29:33Z</time>
      </trkpt>
      <trkpt lat="43.5987" lon="3.75267">
        <ele>89.653847</ele>
        <time>2012-01-21T08:29:42Z</time>
      </trkpt>
      <trkpt lat="43.59871" lon="3.75266">
        <ele>89.703384</ele>
        <time>2012-01-21T08:29:49Z</time>
      </trkpt>
      <trkpt lat="43.59876" lon="3.75263">
        <ele>89.836441</ele>
        <time>2012-01-21T08:30:03Z</time>
      </trkpt>
      <trkpt lat="43.59877" lon="3.75263">
        <ele>89.882759</ele>
        <time>2012-01-21T08:30:35Z</time>
      </trkpt>
      <trkpt lat="43.59882" lon="3.75264">
        <ele>90.058167</ele>
        <time>2012-01-21T08:30:39Z</time>
      </trkpt>
      <trkpt lat="43.59921" lon="3.75264">
        <ele>92.312744</ele>
        <time>2012-01-21T08:30:57Z</time>
      </trkpt>
      <trkpt lat="43.59973" lon="3.75252">
        <ele>94.988998</ele>
        <time>2012-01-21T08:31:17Z</time>
      </trkpt>
      <trkpt lat="43.60036" lon="3.75218">
        <ele>94.409752</ele>
        <time>2012-01-21T08:31:39Z</time>
      </trkpt>
      <trkpt lat="43.60096" lon="3.75163">
        <ele>93.156975</ele>
        <time>2012-01-21T08:31:59Z</time>
      </trkpt>
      <trkpt lat="43.60145" lon="3.75154">
        <ele>95.489471</ele>
        <time>2012-01-21T08:32:15Z</time>
      </trkpt>
      <trkpt lat="43.60185" lon="3.75139">
        <ele>96.785156</ele>
        <time>2012-01-21T08:32:28Z</time>
      </trkpt>
      <trkpt lat="43.60192" lon="3.75116">
        <ele>96.006577</ele>
        <time>2012-01-21T08:32:33Z</time>
      </trkpt>
      <trkpt lat="43.60235" lon="3.75059">
        <ele>97.222717</ele>
        <time>2012-01-21T08:32:50Z</time>
      </trkpt>
      <trkpt lat="43.60282" lon="3.75039">
        <ele>98.582016</ele>
        <time>2012-01-21T08:33:07Z</time>
      </trkpt>
      <trkpt lat="43.60319" lon="3.75023">
        <ele>99.542709</ele>
        <time>2012-01-21T08:33:22Z</time>
      </trkpt>
      <trkpt lat="43.6033" lon="3.75022">
        <ele>100.094543</ele>
        <time>2012-01-21T08:33:27Z</time>
      </trkpt>
      <trkpt lat="43.60366" lon="3.7502">
        <ele>102.080498</ele>
        <time>2012-01-21T08:33:43Z</time>
      </trkpt>
      <trkpt lat="43.60408" lon="3.75006">
        <ele>104.66333</ele>
        <time>2012-01-21T08:34:01Z</time>
      </trkpt>
      <trkpt lat="43.60448" lon="3.74984">
        <ele>107.366844</ele>
        <time>2012-01-21T08:34:19Z</time>
      </trkpt>
      <trkpt lat="43.60462" lon="3.75018">
        <ele>108.281403</ele>
        <time>2012-01-21T08:34:30Z</time>
      </trkpt>
      <trkpt lat="43.60465" lon="3.75026">
        <ele>108.504082</ele>
        <time>2012-01-21T08:34:32Z</time>
      </trkpt>
      <trkpt lat="43.60482" lon="3.75019">
        <ele>109.673042</ele>
        <time>2012-01-21T08:34:40Z</time>
      </trkpt>
      <trkpt lat="43.60532" lon="3.74975">
        <ele>110.035416</ele>
        <time>2012-01-21T08:35:02Z</time>
      </trkpt>
      <trkpt lat="43.60552" lon="3.74925">
        <ele>110.424049</ele>
        <time>2012-01-21T08:35:17Z</time>
      </trkpt>
      <trkpt lat="43.60569" lon="3.74858">
        <ele>111.875076</ele>
        <time>2012-01-21T08:35:38Z</time>
      </trkpt>
      <trkpt lat="43.60586" lon="3.74797">
        <ele>113.469864</ele>
        <time>2012-01-21T08:35:57Z</time>
      </trkpt>
      <trkpt lat="43.60591" lon="3.74722">
        <ele>116.023369</ele>
        <time>2012-01-21T08:36:18Z</time>
      </trkpt>
      <trkpt lat="43.60602" lon="3.74649">
        <ele>119.03653</ele>
        <time>2012-01-21T08:36:38Z</time>
      </trkpt>
      <trkpt lat="43.60622" lon="3.74592">
        <ele>120.228203</ele>
        <time>2012-01-21T08:36:53Z</time>
      </trkpt>
      <trkpt lat="43.60633" lon="3.74591">
        <ele>119.980927</ele>
        <time>2012-01-21T08:36:57Z</time>
      </trkpt>
      <trkpt lat="43.6064" lon="3.74597">
        <ele>119.420441</ele>
        <time>2012-01-21T08:36:59Z</time>
      </trkpt>
      <trkpt lat="43.60723" lon="3.74637">
        <ele>112.673889</ele>
        <time>2012-01-21T08:37:12Z</time>
      </trkpt>
      <trkpt lat="43.60751" lon="3.74659">
        <ele>114.956322</ele>
        <time>2012-01-21T08:37:17Z</time>
      </trkpt>
      <trkpt lat="43.60762" lon="3.74671">
        <ele>116.039368</ele>
        <time>2012-01-21T08:37:20Z</time>
      </trkpt>
      <trkpt lat="43.60767" lon="3.74699">
        <ele>116.702911</ele>
        <time>2012-01-21T08:37:27Z</time>
      </trkpt>
      <trkpt lat="43.60775" lon="3.74696">
        <ele>117.60527</ele>
        <time>2012-01-21T08:37:32Z</time>
      </trkpt>
      <trkpt lat="43.60781" lon="3.74693">
        <ele>118.351013</ele>
        <time>2012-01-21T08:37:37Z</time>
      </trkpt>
      <trkpt lat="43.60822" lon="3.74689">
        <ele>121.864456</ele>
        <time>2012-01-21T08:37:55Z</time>
      </trkpt>
      <trkpt lat="43.60857" lon="3.74688">
        <ele>122.973701</ele>
        <time>2012-01-21T08:38:10Z</time>
      </trkpt>
      <trkpt lat="43.6086" lon="3.74687">
        <ele>122.962044</ele>
        <time>2012-01-21T08:38:28Z</time>
      </trkpt>
      <trkpt lat="43.6086" lon="3.74687">
        <ele>122.961395</ele>
        <time>2012-01-21T08:39:52Z</time>
      </trkpt>
      <trkpt lat="43.60863" lon="3.7469">
        <ele>122.942215</ele>
        <time>2012-01-21T08:41:06Z</time>
      </trkpt>
      <trkpt lat="43.60871" lon="3.74688">
        <ele>122.912102</ele>
        <time>2012-01-21T08:41:10Z</time>
      </trkpt>
      <trkpt lat="43.60913" lon="3.7468">
        <ele>122.5364</ele>
        <time>2012-01-21T08:41:26Z</time>
      </trkpt>
      <trkpt lat="43.60951" lon="3.74655">
        <ele>121.977821</ele>
        <time>2012-01-21T08:41:40Z</time>
      </trkpt>
      <trkpt lat="43.60991" lon="3.74613">
        <ele>120.918655</ele>
        <time>2012-01-21T08:41:55Z</time>
      </trkpt>
      <trkpt lat="43.60996" lon="3.74604">
        <ele>118.9609375</ele>
      </trkpt>
      <trkpt lat="43.60965" lon="3.74525">
        <ele>122.81640625</ele>
      </trkpt>
      <trkpt lat="43.60943" lon="3.74442">
        <ele>124.6171875</ele>
      </trkpt>
      <trkpt lat="43.60919" lon="3.74414">
        <ele>124.140625</ele>
      </trkpt>
      <trkpt lat="43.60907" lon="3.74386">
        <ele>122.875</ele>
      </trkpt>
      <trkpt lat="43.60901" lon="3.74359">
        <ele>122.24609375</ele>
      </trkpt>
      <trkpt lat="43.60894" lon="3.74241">
        <ele>122.9453125</ele>
      </trkpt>
      <trkpt lat="43.6088" lon="3.74184">
        <ele>124.203125</ele>
      </trkpt>
      <trkpt lat="43.60878" lon="3.74136">
        <ele>126.83984375</ele>
      </trkpt>
      <trkpt lat="43.60856" lon="3.74057">
        <ele>133.0234375</ele>
      </trkpt>
    </trkseg>
  </trk>
</gpx>